<?xml version="1.0" encoding="UTF-8" standalone="no" ?>
<gpx xmlns="http://www.topografix.com/GPX/1/1" xmlns:xsi="http://www.w3.org/2001/XMLSchema-instance" xsi:schemaLocation="http://www.topografix.com/GPX/1/1 http://www.topografix.com/GPX/1/1/gpx.xsd" version="1.1" creator="VisuGPX - https://www.visugpx.com">
  <metadata>
    <name>Sortie Moto</name>
  </metadata>
  <trk>
    <name><![CDATA[Journal actif: 2020-04-12 17:05]]></name>
    <trkseg>
      <trkpt lat="46.00174" lon="6.19992">
        <ele>573.08</ele>
        <time>2020-04-12T15:05:31Z</time>
      </trkpt>
      <trkpt lat="46.00175" lon="6.19986">
        <ele>569.72</ele>
        <time>2020-04-12T15:05:48Z</time>
      </trkpt>
      <trkpt lat="46.00178" lon="6.20012">
        <ele>567.8</ele>
        <time>2020-04-12T15:05:55Z</time>
      </trkpt>
      <trkpt lat="46.00196" lon="6.20015">
        <ele>570.68</ele>
        <time>2020-04-12T15:06:02Z</time>
      </trkpt>
      <trkpt lat="46.00199" lon="6.20006">
        <ele>570.2</ele>
        <time>2020-04-12T15:06:03Z</time>
      </trkpt>
      <trkpt lat="46.00235" lon="6.19912">
        <ele>568.28</ele>
        <time>2020-04-12T15:06:09Z</time>
      </trkpt>
      <trkpt lat="46.00278" lon="6.19794">
        <ele>565.87</ele>
        <time>2020-04-12T15:06:15Z</time>
      </trkpt>
      <trkpt lat="46.00281" lon="6.19771">
        <ele>565.39</ele>
        <time>2020-04-12T15:06:17Z</time>
      </trkpt>
      <trkpt lat="46.00293" lon="6.19493">
        <ele>565.39</ele>
        <time>2020-04-12T15:06:27Z</time>
      </trkpt>
      <trkpt lat="46.00298" lon="6.19467">
        <ele>565.39</ele>
        <time>2020-04-12T15:06:28Z</time>
      </trkpt>
      <trkpt lat="46.00348" lon="6.19206">
        <ele>568.76</ele>
        <time>2020-04-12T15:06:38Z</time>
      </trkpt>
      <trkpt lat="46.00379" lon="6.19054">
        <ele>565.39</ele>
        <time>2020-04-12T15:06:45Z</time>
      </trkpt>
      <trkpt lat="46.00397" lon="6.18972">
        <ele>559.14</ele>
        <time>2020-04-12T15:06:51Z</time>
      </trkpt>
      <trkpt lat="46.00397" lon="6.18972">
        <ele>559.14</ele>
        <time>2020-04-12T15:06:52Z</time>
      </trkpt>
      <trkpt lat="46.00399" lon="6.18964">
        <ele>559.14</ele>
        <time>2020-04-12T15:06:53Z</time>
      </trkpt>
      <trkpt lat="46.00391" lon="6.18949">
        <ele>559.14</ele>
        <time>2020-04-12T15:06:54Z</time>
      </trkpt>
      <trkpt lat="46.00385" lon="6.18946">
        <ele>559.14</ele>
        <time>2020-04-12T15:06:55Z</time>
      </trkpt>
      <trkpt lat="46.00379" lon="6.18942">
        <ele>559.14</ele>
        <time>2020-04-12T15:06:56Z</time>
      </trkpt>
      <trkpt lat="46.00373" lon="6.18936">
        <ele>559.14</ele>
        <time>2020-04-12T15:06:57Z</time>
      </trkpt>
      <trkpt lat="46.00366" lon="6.1893">
        <ele>558.18</ele>
        <time>2020-04-12T15:06:58Z</time>
      </trkpt>
      <trkpt lat="46.0036" lon="6.18919">
        <ele>558.18</ele>
        <time>2020-04-12T15:06:59Z</time>
      </trkpt>
      <trkpt lat="46.00358" lon="6.18906">
        <ele>558.66</ele>
        <time>2020-04-12T15:07:00Z</time>
      </trkpt>
      <trkpt lat="46.00362" lon="6.18887">
        <ele>558.18</ele>
        <time>2020-04-12T15:07:02Z</time>
      </trkpt>
      <trkpt lat="46.00373" lon="6.1888">
        <ele>558.18</ele>
        <time>2020-04-12T15:07:03Z</time>
      </trkpt>
      <trkpt lat="46.00381" lon="6.18876">
        <ele>557.7</ele>
        <time>2020-04-12T15:07:04Z</time>
      </trkpt>
      <trkpt lat="46.00389" lon="6.1888">
        <ele>558.18</ele>
        <time>2020-04-12T15:07:05Z</time>
      </trkpt>
      <trkpt lat="46.00413" lon="6.18892">
        <ele>558.66</ele>
        <time>2020-04-12T15:07:07Z</time>
      </trkpt>
      <trkpt lat="46.0043" lon="6.18904">
        <ele>559.62</ele>
        <time>2020-04-12T15:07:08Z</time>
      </trkpt>
      <trkpt lat="46.0049" lon="6.18981">
        <ele>563.95</ele>
        <time>2020-04-12T15:07:11Z</time>
      </trkpt>
      <trkpt lat="46.00525" lon="6.19054">
        <ele>568.28</ele>
        <time>2020-04-12T15:07:13Z</time>
      </trkpt>
      <trkpt lat="46.00615" lon="6.19286">
        <ele>582.22</ele>
        <time>2020-04-12T15:07:19Z</time>
      </trkpt>
      <trkpt lat="46.00673" lon="6.19452">
        <ele>594.23</ele>
        <time>2020-04-12T15:07:25Z</time>
      </trkpt>
      <trkpt lat="46.00692" lon="6.19499">
        <ele>598.08</ele>
        <time>2020-04-12T15:07:28Z</time>
      </trkpt>
      <trkpt lat="46.00694" lon="6.19511">
        <ele>599.04</ele>
        <time>2020-04-12T15:07:29Z</time>
      </trkpt>
      <trkpt lat="46.00692" lon="6.1953">
        <ele>600</ele>
        <time>2020-04-12T15:07:30Z</time>
      </trkpt>
      <trkpt lat="46.00687" lon="6.19539">
        <ele>600</ele>
        <time>2020-04-12T15:07:31Z</time>
      </trkpt>
      <trkpt lat="46.00677" lon="6.19539">
        <ele>600.48</ele>
        <time>2020-04-12T15:07:32Z</time>
      </trkpt>
      <trkpt lat="46.0067" lon="6.19536">
        <ele>601.44</ele>
        <time>2020-04-12T15:07:33Z</time>
      </trkpt>
      <trkpt lat="46.00661" lon="6.19523">
        <ele>602.4</ele>
        <time>2020-04-12T15:07:34Z</time>
      </trkpt>
      <trkpt lat="46.00655" lon="6.19509">
        <ele>602.88</ele>
        <time>2020-04-12T15:07:35Z</time>
      </trkpt>
      <trkpt lat="46.00647" lon="6.19492">
        <ele>603.36</ele>
        <time>2020-04-12T15:07:36Z</time>
      </trkpt>
      <trkpt lat="46.00576" lon="6.19351">
        <ele>608.65</ele>
        <time>2020-04-12T15:07:43Z</time>
      </trkpt>
      <trkpt lat="46.0054" lon="6.19314">
        <ele>610.09</ele>
        <time>2020-04-12T15:07:46Z</time>
      </trkpt>
      <trkpt lat="46.00528" lon="6.19308">
        <ele>611.06</ele>
        <time>2020-04-12T15:07:47Z</time>
      </trkpt>
      <trkpt lat="46.00516" lon="6.19309">
        <ele>611.54</ele>
        <time>2020-04-12T15:07:48Z</time>
      </trkpt>
      <trkpt lat="46.00505" lon="6.19315">
        <ele>612.02</ele>
        <time>2020-04-12T15:07:49Z</time>
      </trkpt>
      <trkpt lat="46.00495" lon="6.19323">
        <ele>612.5</ele>
        <time>2020-04-12T15:07:50Z</time>
      </trkpt>
      <trkpt lat="46.00489" lon="6.19338">
        <ele>612.98</ele>
        <time>2020-04-12T15:07:51Z</time>
      </trkpt>
      <trkpt lat="46.00482" lon="6.19352">
        <ele>613.46</ele>
        <time>2020-04-12T15:07:52Z</time>
      </trkpt>
      <trkpt lat="46.0048" lon="6.19369">
        <ele>613.94</ele>
        <time>2020-04-12T15:07:53Z</time>
      </trkpt>
      <trkpt lat="46.0048" lon="6.19382">
        <ele>614.42</ele>
        <time>2020-04-12T15:07:54Z</time>
      </trkpt>
      <trkpt lat="46.00487" lon="6.19403">
        <ele>614.9</ele>
        <time>2020-04-12T15:07:55Z</time>
      </trkpt>
      <trkpt lat="46.00494" lon="6.19421">
        <ele>615.38</ele>
        <time>2020-04-12T15:07:56Z</time>
      </trkpt>
      <trkpt lat="46.00504" lon="6.19438">
        <ele>615.86</ele>
        <time>2020-04-12T15:07:57Z</time>
      </trkpt>
      <trkpt lat="46.00515" lon="6.19456">
        <ele>616.82</ele>
        <time>2020-04-12T15:07:58Z</time>
      </trkpt>
      <trkpt lat="46.00527" lon="6.19474">
        <ele>617.78</ele>
        <time>2020-04-12T15:07:59Z</time>
      </trkpt>
      <trkpt lat="46.00542" lon="6.19488">
        <ele>618.26</ele>
        <time>2020-04-12T15:08:00Z</time>
      </trkpt>
      <trkpt lat="46.00558" lon="6.19503">
        <ele>619.23</ele>
        <time>2020-04-12T15:08:01Z</time>
      </trkpt>
      <trkpt lat="46.00603" lon="6.19553">
        <ele>622.11</ele>
        <time>2020-04-12T15:08:04Z</time>
      </trkpt>
      <trkpt lat="46.00614" lon="6.19577">
        <ele>623.07</ele>
        <time>2020-04-12T15:08:05Z</time>
      </trkpt>
      <trkpt lat="46.00696" lon="6.198">
        <ele>631.72</ele>
        <time>2020-04-12T15:08:13Z</time>
      </trkpt>
      <trkpt lat="46.00704" lon="6.1983">
        <ele>632.68</ele>
        <time>2020-04-12T15:08:14Z</time>
      </trkpt>
      <trkpt lat="46.00763" lon="6.20111">
        <ele>644.7</ele>
        <time>2020-04-12T15:08:24Z</time>
      </trkpt>
      <trkpt lat="46.00833" lon="6.20372">
        <ele>655.76</ele>
        <time>2020-04-12T15:08:35Z</time>
      </trkpt>
      <trkpt lat="46.00869" lon="6.20495">
        <ele>658.64</ele>
        <time>2020-04-12T15:08:40Z</time>
      </trkpt>
      <trkpt lat="46.00878" lon="6.20519">
        <ele>659.12</ele>
        <time>2020-04-12T15:08:41Z</time>
      </trkpt>
      <trkpt lat="46.00888" lon="6.2054">
        <ele>659.6</ele>
        <time>2020-04-12T15:08:42Z</time>
      </trkpt>
      <trkpt lat="46.00902" lon="6.20561">
        <ele>660.08</ele>
        <time>2020-04-12T15:08:43Z</time>
      </trkpt>
      <trkpt lat="46.00917" lon="6.2058">
        <ele>660.56</ele>
        <time>2020-04-12T15:08:44Z</time>
      </trkpt>
      <trkpt lat="46.00934" lon="6.206">
        <ele>661.04</ele>
        <time>2020-04-12T15:08:45Z</time>
      </trkpt>
      <trkpt lat="46.01069" lon="6.2076">
        <ele>663.45</ele>
        <time>2020-04-12T15:08:52Z</time>
      </trkpt>
      <trkpt lat="46.01277" lon="6.21011">
        <ele>666.33</ele>
        <time>2020-04-12T15:09:01Z</time>
      </trkpt>
      <trkpt lat="46.01401" lon="6.21189">
        <ele>670.18</ele>
        <time>2020-04-12T15:09:07Z</time>
      </trkpt>
      <trkpt lat="46.01401" lon="6.21189">
        <ele>671.14</ele>
        <time>2020-04-12T15:09:08Z</time>
      </trkpt>
      <trkpt lat="46.01439" lon="6.21242">
        <ele>671.62</ele>
        <time>2020-04-12T15:09:09Z</time>
      </trkpt>
      <trkpt lat="46.01461" lon="6.21266">
        <ele>672.58</ele>
        <time>2020-04-12T15:09:10Z</time>
      </trkpt>
      <trkpt lat="46.01641" lon="6.21446">
        <ele>677.87</ele>
        <time>2020-04-12T15:09:18Z</time>
      </trkpt>
      <trkpt lat="46.01712" lon="6.21541">
        <ele>679.31</ele>
        <time>2020-04-12T15:09:22Z</time>
      </trkpt>
      <trkpt lat="46.01726" lon="6.2157">
        <ele>679.31</ele>
        <time>2020-04-12T15:09:23Z</time>
      </trkpt>
      <trkpt lat="46.01858" lon="6.21898">
        <ele>682.67</ele>
        <time>2020-04-12T15:09:33Z</time>
      </trkpt>
      <trkpt lat="46.0193" lon="6.22168">
        <ele>685.08</ele>
        <time>2020-04-12T15:09:40Z</time>
      </trkpt>
      <trkpt lat="46.01987" lon="6.22531">
        <ele>691.81</ele>
        <time>2020-04-12T15:09:48Z</time>
      </trkpt>
      <trkpt lat="46.0204" lon="6.22895">
        <ele>699.5</ele>
        <time>2020-04-12T15:09:57Z</time>
      </trkpt>
      <trkpt lat="46.02047" lon="6.22927">
        <ele>699.98</ele>
        <time>2020-04-12T15:09:58Z</time>
      </trkpt>
      <trkpt lat="46.02056" lon="6.22955">
        <ele>700.46</ele>
        <time>2020-04-12T15:09:59Z</time>
      </trkpt>
      <trkpt lat="46.02066" lon="6.22985">
        <ele>700.94</ele>
        <time>2020-04-12T15:10:00Z</time>
      </trkpt>
      <trkpt lat="46.02078" lon="6.23006">
        <ele>701.42</ele>
        <time>2020-04-12T15:10:01Z</time>
      </trkpt>
      <trkpt lat="46.02091" lon="6.23027">
        <ele>702.38</ele>
        <time>2020-04-12T15:10:02Z</time>
      </trkpt>
      <trkpt lat="46.02106" lon="6.23046">
        <ele>702.38</ele>
        <time>2020-04-12T15:10:03Z</time>
      </trkpt>
      <trkpt lat="46.02121" lon="6.23065">
        <ele>702.86</ele>
        <time>2020-04-12T15:10:04Z</time>
      </trkpt>
      <trkpt lat="46.02134" lon="6.23083">
        <ele>703.34</ele>
        <time>2020-04-12T15:10:05Z</time>
      </trkpt>
      <trkpt lat="46.02146" lon="6.231">
        <ele>703.34</ele>
        <time>2020-04-12T15:10:06Z</time>
      </trkpt>
      <trkpt lat="46.02231" lon="6.23263">
        <ele>706.23</ele>
        <time>2020-04-12T15:10:15Z</time>
      </trkpt>
      <trkpt lat="46.02288" lon="6.23373">
        <ele>709.11</ele>
        <time>2020-04-12T15:10:21Z</time>
      </trkpt>
      <trkpt lat="46.023" lon="6.23386">
        <ele>710.07</ele>
        <time>2020-04-12T15:10:22Z</time>
      </trkpt>
      <trkpt lat="46.02313" lon="6.23398">
        <ele>711.03</ele>
        <time>2020-04-12T15:10:23Z</time>
      </trkpt>
      <trkpt lat="46.02327" lon="6.2341">
        <ele>711.51</ele>
        <time>2020-04-12T15:10:24Z</time>
      </trkpt>
      <trkpt lat="46.02341" lon="6.23423">
        <ele>712.47</ele>
        <time>2020-04-12T15:10:25Z</time>
      </trkpt>
      <trkpt lat="46.02417" lon="6.23503">
        <ele>718.24</ele>
        <time>2020-04-12T15:10:30Z</time>
      </trkpt>
      <trkpt lat="46.0243" lon="6.23526">
        <ele>719.68</ele>
        <time>2020-04-12T15:10:31Z</time>
      </trkpt>
      <trkpt lat="46.02442" lon="6.23552">
        <ele>720.16</ele>
        <time>2020-04-12T15:10:32Z</time>
      </trkpt>
      <trkpt lat="46.02512" lon="6.23682">
        <ele>724.97</ele>
        <time>2020-04-12T15:10:37Z</time>
      </trkpt>
      <trkpt lat="46.0253" lon="6.23702">
        <ele>725.93</ele>
        <time>2020-04-12T15:10:38Z</time>
      </trkpt>
      <trkpt lat="46.0255" lon="6.2372">
        <ele>726.89</ele>
        <time>2020-04-12T15:10:39Z</time>
      </trkpt>
      <trkpt lat="46.02571" lon="6.23734">
        <ele>727.86</ele>
        <time>2020-04-12T15:10:40Z</time>
      </trkpt>
      <trkpt lat="46.02594" lon="6.23745">
        <ele>728.34</ele>
        <time>2020-04-12T15:10:41Z</time>
      </trkpt>
      <trkpt lat="46.02618" lon="6.23754">
        <ele>729.78</ele>
        <time>2020-04-12T15:10:42Z</time>
      </trkpt>
      <trkpt lat="46.02643" lon="6.23759">
        <ele>730.74</ele>
        <time>2020-04-12T15:10:43Z</time>
      </trkpt>
      <trkpt lat="46.02882" lon="6.23809">
        <ele>741.31</ele>
        <time>2020-04-12T15:10:52Z</time>
      </trkpt>
      <trkpt lat="46.02908" lon="6.23819">
        <ele>742.28</ele>
        <time>2020-04-12T15:10:53Z</time>
      </trkpt>
      <trkpt lat="46.03036" lon="6.23889">
        <ele>745.64</ele>
        <time>2020-04-12T15:10:58Z</time>
      </trkpt>
      <trkpt lat="46.0306" lon="6.23913">
        <ele>746.6</ele>
        <time>2020-04-12T15:10:59Z</time>
      </trkpt>
      <trkpt lat="46.03082" lon="6.23938">
        <ele>747.08</ele>
        <time>2020-04-12T15:11:00Z</time>
      </trkpt>
      <trkpt lat="46.03226" lon="6.24101">
        <ele>750.45</ele>
        <time>2020-04-12T15:11:07Z</time>
      </trkpt>
      <trkpt lat="46.03307" lon="6.24227">
        <ele>753.33</ele>
        <time>2020-04-12T15:11:13Z</time>
      </trkpt>
      <trkpt lat="46.03321" lon="6.24242">
        <ele>753.33</ele>
        <time>2020-04-12T15:11:14Z</time>
      </trkpt>
      <trkpt lat="46.03337" lon="6.24254">
        <ele>753.81</ele>
        <time>2020-04-12T15:11:15Z</time>
      </trkpt>
      <trkpt lat="46.03353" lon="6.24264">
        <ele>754.29</ele>
        <time>2020-04-12T15:11:16Z</time>
      </trkpt>
      <trkpt lat="46.0337" lon="6.2427">
        <ele>754.29</ele>
        <time>2020-04-12T15:11:17Z</time>
      </trkpt>
      <trkpt lat="46.03386" lon="6.24271">
        <ele>754.77</ele>
        <time>2020-04-12T15:11:18Z</time>
      </trkpt>
      <trkpt lat="46.03403" lon="6.24268">
        <ele>755.25</ele>
        <time>2020-04-12T15:11:19Z</time>
      </trkpt>
      <trkpt lat="46.03419" lon="6.24261">
        <ele>755.73</ele>
        <time>2020-04-12T15:11:20Z</time>
      </trkpt>
      <trkpt lat="46.03435" lon="6.24251">
        <ele>756.21</ele>
        <time>2020-04-12T15:11:21Z</time>
      </trkpt>
      <trkpt lat="46.03447" lon="6.24236">
        <ele>756.69</ele>
        <time>2020-04-12T15:11:22Z</time>
      </trkpt>
      <trkpt lat="46.0346" lon="6.24217">
        <ele>757.18</ele>
        <time>2020-04-12T15:11:23Z</time>
      </trkpt>
      <trkpt lat="46.03473" lon="6.24196">
        <ele>757.66</ele>
        <time>2020-04-12T15:11:24Z</time>
      </trkpt>
      <trkpt lat="46.03487" lon="6.24175">
        <ele>758.14</ele>
        <time>2020-04-12T15:11:25Z</time>
      </trkpt>
      <trkpt lat="46.03514" lon="6.2413">
        <ele>759.58</ele>
        <time>2020-04-12T15:11:27Z</time>
      </trkpt>
      <trkpt lat="46.03527" lon="6.24108">
        <ele>760.54</ele>
        <time>2020-04-12T15:11:28Z</time>
      </trkpt>
      <trkpt lat="46.03545" lon="6.24092">
        <ele>761.02</ele>
        <time>2020-04-12T15:11:29Z</time>
      </trkpt>
      <trkpt lat="46.03565" lon="6.2408">
        <ele>761.98</ele>
        <time>2020-04-12T15:11:30Z</time>
      </trkpt>
      <trkpt lat="46.03586" lon="6.24073">
        <ele>762.46</ele>
        <time>2020-04-12T15:11:31Z</time>
      </trkpt>
      <trkpt lat="46.03607" lon="6.24072">
        <ele>763.42</ele>
        <time>2020-04-12T15:11:32Z</time>
      </trkpt>
      <trkpt lat="46.03628" lon="6.24074">
        <ele>764.39</ele>
        <time>2020-04-12T15:11:33Z</time>
      </trkpt>
      <trkpt lat="46.03649" lon="6.2408">
        <ele>764.87</ele>
        <time>2020-04-12T15:11:34Z</time>
      </trkpt>
      <trkpt lat="46.03669" lon="6.24093">
        <ele>766.31</ele>
        <time>2020-04-12T15:11:35Z</time>
      </trkpt>
      <trkpt lat="46.03689" lon="6.24111">
        <ele>767.75</ele>
        <time>2020-04-12T15:11:36Z</time>
      </trkpt>
      <trkpt lat="46.03708" lon="6.24131">
        <ele>769.19</ele>
        <time>2020-04-12T15:11:37Z</time>
      </trkpt>
      <trkpt lat="46.03726" lon="6.24157">
        <ele>770.63</ele>
        <time>2020-04-12T15:11:38Z</time>
      </trkpt>
      <trkpt lat="46.03743" lon="6.24184">
        <ele>772.08</ele>
        <time>2020-04-12T15:11:39Z</time>
      </trkpt>
      <trkpt lat="46.03761" lon="6.24211">
        <ele>773.52</ele>
        <time>2020-04-12T15:11:40Z</time>
      </trkpt>
      <trkpt lat="46.03773" lon="6.24245">
        <ele>774.96</ele>
        <time>2020-04-12T15:11:41Z</time>
      </trkpt>
      <trkpt lat="46.03785" lon="6.24279">
        <ele>776.88</ele>
        <time>2020-04-12T15:11:42Z</time>
      </trkpt>
      <trkpt lat="46.03796" lon="6.24315">
        <ele>778.81</ele>
        <time>2020-04-12T15:11:43Z</time>
      </trkpt>
      <trkpt lat="46.03803" lon="6.24353">
        <ele>780.73</ele>
        <time>2020-04-12T15:11:44Z</time>
      </trkpt>
      <trkpt lat="46.0381" lon="6.2439">
        <ele>782.65</ele>
        <time>2020-04-12T15:11:45Z</time>
      </trkpt>
      <trkpt lat="46.03842" lon="6.24529">
        <ele>789.38</ele>
        <time>2020-04-12T15:11:49Z</time>
      </trkpt>
      <trkpt lat="46.03853" lon="6.24559">
        <ele>790.82</ele>
        <time>2020-04-12T15:11:50Z</time>
      </trkpt>
      <trkpt lat="46.03866" lon="6.24588">
        <ele>792.26</ele>
        <time>2020-04-12T15:11:51Z</time>
      </trkpt>
      <trkpt lat="46.03882" lon="6.24613">
        <ele>793.22</ele>
        <time>2020-04-12T15:11:52Z</time>
      </trkpt>
      <trkpt lat="46.03899" lon="6.24636">
        <ele>794.67</ele>
        <time>2020-04-12T15:11:53Z</time>
      </trkpt>
      <trkpt lat="46.03919" lon="6.24656">
        <ele>795.15</ele>
        <time>2020-04-12T15:11:54Z</time>
      </trkpt>
      <trkpt lat="46.03939" lon="6.24675">
        <ele>795.63</ele>
        <time>2020-04-12T15:11:55Z</time>
      </trkpt>
      <trkpt lat="46.03961" lon="6.24688">
        <ele>796.11</ele>
        <time>2020-04-12T15:11:56Z</time>
      </trkpt>
      <trkpt lat="46.03984" lon="6.24701">
        <ele>796.59</ele>
        <time>2020-04-12T15:11:57Z</time>
      </trkpt>
      <trkpt lat="46.04009" lon="6.24708">
        <ele>796.59</ele>
        <time>2020-04-12T15:11:58Z</time>
      </trkpt>
      <trkpt lat="46.04034" lon="6.24715">
        <ele>796.59</ele>
        <time>2020-04-12T15:11:59Z</time>
      </trkpt>
      <trkpt lat="46.04084" lon="6.24736">
        <ele>795.63</ele>
        <time>2020-04-12T15:12:01Z</time>
      </trkpt>
      <trkpt lat="46.04108" lon="6.2475">
        <ele>795.15</ele>
        <time>2020-04-12T15:12:02Z</time>
      </trkpt>
      <trkpt lat="46.0413" lon="6.24772">
        <ele>794.19</ele>
        <time>2020-04-12T15:12:03Z</time>
      </trkpt>
      <trkpt lat="46.04151" lon="6.24797">
        <ele>793.22</ele>
        <time>2020-04-12T15:12:04Z</time>
      </trkpt>
      <trkpt lat="46.04173" lon="6.24821">
        <ele>791.78</ele>
        <time>2020-04-12T15:12:05Z</time>
      </trkpt>
      <trkpt lat="46.04193" lon="6.2485">
        <ele>790.82</ele>
        <time>2020-04-12T15:12:06Z</time>
      </trkpt>
      <trkpt lat="46.04337" lon="6.25068">
        <ele>792.74</ele>
        <time>2020-04-12T15:12:14Z</time>
      </trkpt>
      <trkpt lat="46.0435" lon="6.25097">
        <ele>794.19</ele>
        <time>2020-04-12T15:12:15Z</time>
      </trkpt>
      <trkpt lat="46.0436" lon="6.25127">
        <ele>795.15</ele>
        <time>2020-04-12T15:12:16Z</time>
      </trkpt>
      <trkpt lat="46.04422" lon="6.25387">
        <ele>803.32</ele>
        <time>2020-04-12T15:12:24Z</time>
      </trkpt>
      <trkpt lat="46.04466" lon="6.25532">
        <ele>805.72</ele>
        <time>2020-04-12T15:12:29Z</time>
      </trkpt>
      <trkpt lat="46.04593" lon="6.25801">
        <ele>804.76</ele>
        <time>2020-04-12T15:12:40Z</time>
      </trkpt>
      <trkpt lat="46.04747" lon="6.26117">
        <ele>800.92</ele>
        <time>2020-04-12T15:12:53Z</time>
      </trkpt>
      <trkpt lat="46.04866" lon="6.26354">
        <ele>793.71</ele>
        <time>2020-04-12T15:13:02Z</time>
      </trkpt>
      <trkpt lat="46.04902" lon="6.26399">
        <ele>791.78</ele>
        <time>2020-04-12T15:13:04Z</time>
      </trkpt>
      <trkpt lat="46.04922" lon="6.26422">
        <ele>790.34</ele>
        <time>2020-04-12T15:13:05Z</time>
      </trkpt>
      <trkpt lat="46.05071" lon="6.26561">
        <ele>780.73</ele>
        <time>2020-04-12T15:13:12Z</time>
      </trkpt>
      <trkpt lat="46.05088" lon="6.26589">
        <ele>779.29</ele>
        <time>2020-04-12T15:13:13Z</time>
      </trkpt>
      <trkpt lat="46.05103" lon="6.26619">
        <ele>778.32</ele>
        <time>2020-04-12T15:13:14Z</time>
      </trkpt>
      <trkpt lat="46.05116" lon="6.26652">
        <ele>776.88</ele>
        <time>2020-04-12T15:13:15Z</time>
      </trkpt>
      <trkpt lat="46.05126" lon="6.26685">
        <ele>775.92</ele>
        <time>2020-04-12T15:13:16Z</time>
      </trkpt>
      <trkpt lat="46.05135" lon="6.2672">
        <ele>774.96</ele>
        <time>2020-04-12T15:13:17Z</time>
      </trkpt>
      <trkpt lat="46.05142" lon="6.26755">
        <ele>774</ele>
        <time>2020-04-12T15:13:18Z</time>
      </trkpt>
      <trkpt lat="46.05146" lon="6.26792">
        <ele>773.04</ele>
        <time>2020-04-12T15:13:19Z</time>
      </trkpt>
      <trkpt lat="46.05149" lon="6.26829">
        <ele>773.04</ele>
        <time>2020-04-12T15:13:20Z</time>
      </trkpt>
      <trkpt lat="46.05147" lon="6.26867">
        <ele>772.56</ele>
        <time>2020-04-12T15:13:21Z</time>
      </trkpt>
      <trkpt lat="46.05145" lon="6.26905">
        <ele>772.08</ele>
        <time>2020-04-12T15:13:22Z</time>
      </trkpt>
      <trkpt lat="46.05141" lon="6.26943">
        <ele>772.08</ele>
        <time>2020-04-12T15:13:23Z</time>
      </trkpt>
      <trkpt lat="46.05126" lon="6.27283">
        <ele>765.83</ele>
        <time>2020-04-12T15:13:32Z</time>
      </trkpt>
      <trkpt lat="46.05173" lon="6.27594">
        <ele>757.18</ele>
        <time>2020-04-12T15:13:40Z</time>
      </trkpt>
      <trkpt lat="46.05282" lon="6.27933">
        <ele>751.41</ele>
        <time>2020-04-12T15:13:49Z</time>
      </trkpt>
      <trkpt lat="46.05466" lon="6.28454">
        <ele>740.83</ele>
        <time>2020-04-12T15:14:03Z</time>
      </trkpt>
      <trkpt lat="46.05581" lon="6.28784">
        <ele>733.14</ele>
        <time>2020-04-12T15:14:12Z</time>
      </trkpt>
      <trkpt lat="46.05627" lon="6.28881">
        <ele>728.82</ele>
        <time>2020-04-12T15:14:15Z</time>
      </trkpt>
      <trkpt lat="46.05644" lon="6.28909">
        <ele>727.37</ele>
        <time>2020-04-12T15:14:16Z</time>
      </trkpt>
      <trkpt lat="46.05663" lon="6.28933">
        <ele>725.93</ele>
        <time>2020-04-12T15:14:17Z</time>
      </trkpt>
      <trkpt lat="46.05684" lon="6.28954">
        <ele>724.49</ele>
        <time>2020-04-12T15:14:18Z</time>
      </trkpt>
      <trkpt lat="46.05707" lon="6.28969">
        <ele>723.53</ele>
        <time>2020-04-12T15:14:19Z</time>
      </trkpt>
      <trkpt lat="46.0573" lon="6.28985">
        <ele>722.09</ele>
        <time>2020-04-12T15:14:20Z</time>
      </trkpt>
      <trkpt lat="46.05755" lon="6.28995">
        <ele>720.65</ele>
        <time>2020-04-12T15:14:21Z</time>
      </trkpt>
      <trkpt lat="46.0578" lon="6.29004">
        <ele>719.2</ele>
        <time>2020-04-12T15:14:22Z</time>
      </trkpt>
      <trkpt lat="46.05807" lon="6.29008">
        <ele>718.24</ele>
        <time>2020-04-12T15:14:23Z</time>
      </trkpt>
      <trkpt lat="46.05835" lon="6.29008">
        <ele>716.8</ele>
        <time>2020-04-12T15:14:24Z</time>
      </trkpt>
      <trkpt lat="46.05862" lon="6.29005">
        <ele>714.88</ele>
        <time>2020-04-12T15:14:25Z</time>
      </trkpt>
      <trkpt lat="46.05891" lon="6.29001">
        <ele>713.44</ele>
        <time>2020-04-12T15:14:26Z</time>
      </trkpt>
      <trkpt lat="46.05919" lon="6.28991">
        <ele>711.99</ele>
        <time>2020-04-12T15:14:27Z</time>
      </trkpt>
      <trkpt lat="46.06163" lon="6.2891">
        <ele>699.02</ele>
        <time>2020-04-12T15:14:36Z</time>
      </trkpt>
      <trkpt lat="46.06356" lon="6.28851">
        <ele>687.96</ele>
        <time>2020-04-12T15:14:45Z</time>
      </trkpt>
      <trkpt lat="46.06416" lon="6.28838">
        <ele>684.12</ele>
        <time>2020-04-12T15:14:49Z</time>
      </trkpt>
      <trkpt lat="46.06426" lon="6.28836">
        <ele>683.15</ele>
        <time>2020-04-12T15:14:50Z</time>
      </trkpt>
      <trkpt lat="46.06436" lon="6.28858">
        <ele>682.19</ele>
        <time>2020-04-12T15:14:51Z</time>
      </trkpt>
      <trkpt lat="46.0645" lon="6.28855">
        <ele>681.71</ele>
        <time>2020-04-12T15:14:52Z</time>
      </trkpt>
      <trkpt lat="46.06456" lon="6.28849">
        <ele>681.23</ele>
        <time>2020-04-12T15:14:53Z</time>
      </trkpt>
      <trkpt lat="46.06466" lon="6.2883">
        <ele>681.23</ele>
        <time>2020-04-12T15:14:54Z</time>
      </trkpt>
      <trkpt lat="46.06481" lon="6.28826">
        <ele>680.75</ele>
        <time>2020-04-12T15:14:55Z</time>
      </trkpt>
      <trkpt lat="46.06585" lon="6.28771">
        <ele>675.94</ele>
        <time>2020-04-12T15:15:00Z</time>
      </trkpt>
      <trkpt lat="46.06752" lon="6.2868">
        <ele>666.33</ele>
        <time>2020-04-12T15:15:07Z</time>
      </trkpt>
      <trkpt lat="46.06777" lon="6.28675">
        <ele>665.37</ele>
        <time>2020-04-12T15:15:08Z</time>
      </trkpt>
      <trkpt lat="46.06802" lon="6.28673">
        <ele>664.41</ele>
        <time>2020-04-12T15:15:09Z</time>
      </trkpt>
      <trkpt lat="46.06827" lon="6.28679">
        <ele>662.97</ele>
        <time>2020-04-12T15:15:10Z</time>
      </trkpt>
      <trkpt lat="46.06852" lon="6.28686">
        <ele>662.01</ele>
        <time>2020-04-12T15:15:11Z</time>
      </trkpt>
      <trkpt lat="46.06877" lon="6.28699">
        <ele>660.56</ele>
        <time>2020-04-12T15:15:12Z</time>
      </trkpt>
      <trkpt lat="46.06901" lon="6.28713">
        <ele>659.12</ele>
        <time>2020-04-12T15:15:13Z</time>
      </trkpt>
      <trkpt lat="46.06925" lon="6.28729">
        <ele>658.16</ele>
        <time>2020-04-12T15:15:14Z</time>
      </trkpt>
      <trkpt lat="46.06948" lon="6.28746">
        <ele>656.72</ele>
        <time>2020-04-12T15:15:15Z</time>
      </trkpt>
      <trkpt lat="46.07092" lon="6.28816">
        <ele>648.07</ele>
        <time>2020-04-12T15:15:21Z</time>
      </trkpt>
      <trkpt lat="46.07315" lon="6.28842">
        <ele>635.09</ele>
        <time>2020-04-12T15:15:30Z</time>
      </trkpt>
      <trkpt lat="46.07361" lon="6.28863">
        <ele>631.72</ele>
        <time>2020-04-12T15:15:32Z</time>
      </trkpt>
      <trkpt lat="46.07383" lon="6.28878">
        <ele>630.28</ele>
        <time>2020-04-12T15:15:33Z</time>
      </trkpt>
      <trkpt lat="46.07403" lon="6.28897">
        <ele>628.84</ele>
        <time>2020-04-12T15:15:34Z</time>
      </trkpt>
      <trkpt lat="46.07421" lon="6.28921">
        <ele>627.4</ele>
        <time>2020-04-12T15:15:35Z</time>
      </trkpt>
      <trkpt lat="46.07437" lon="6.28946">
        <ele>626.44</ele>
        <time>2020-04-12T15:15:36Z</time>
      </trkpt>
      <trkpt lat="46.07452" lon="6.28973">
        <ele>624.99</ele>
        <time>2020-04-12T15:15:37Z</time>
      </trkpt>
      <trkpt lat="46.07465" lon="6.29003">
        <ele>624.03</ele>
        <time>2020-04-12T15:15:38Z</time>
      </trkpt>
      <trkpt lat="46.07474" lon="6.29035">
        <ele>623.07</ele>
        <time>2020-04-12T15:15:39Z</time>
      </trkpt>
      <trkpt lat="46.07482" lon="6.29065">
        <ele>622.59</ele>
        <time>2020-04-12T15:15:40Z</time>
      </trkpt>
      <trkpt lat="46.07514" lon="6.29184">
        <ele>618.26</ele>
        <time>2020-04-12T15:15:45Z</time>
      </trkpt>
      <trkpt lat="46.0752" lon="6.29211">
        <ele>617.3</ele>
        <time>2020-04-12T15:15:46Z</time>
      </trkpt>
      <trkpt lat="46.07514" lon="6.29231">
        <ele>616.82</ele>
        <time>2020-04-12T15:15:47Z</time>
      </trkpt>
      <trkpt lat="46.07507" lon="6.29253">
        <ele>616.34</ele>
        <time>2020-04-12T15:15:48Z</time>
      </trkpt>
      <trkpt lat="46.07498" lon="6.29277">
        <ele>615.86</ele>
        <time>2020-04-12T15:15:49Z</time>
      </trkpt>
      <trkpt lat="46.0747" lon="6.29359">
        <ele>613.46</ele>
        <time>2020-04-12T15:15:52Z</time>
      </trkpt>
      <trkpt lat="46.07457" lon="6.29385">
        <ele>612.5</ele>
        <time>2020-04-12T15:15:53Z</time>
      </trkpt>
      <trkpt lat="46.07444" lon="6.29409">
        <ele>611.06</ele>
        <time>2020-04-12T15:15:54Z</time>
      </trkpt>
      <trkpt lat="46.07279" lon="6.29649">
        <ele>602.4</ele>
        <time>2020-04-12T15:16:05Z</time>
      </trkpt>
      <trkpt lat="46.0718" lon="6.29758">
        <ele>598.08</ele>
        <time>2020-04-12T15:16:12Z</time>
      </trkpt>
      <trkpt lat="46.0715" lon="6.29797">
        <ele>596.64</ele>
        <time>2020-04-12T15:16:15Z</time>
      </trkpt>
      <trkpt lat="46.07095" lon="6.29941">
        <ele>594.23</ele>
        <time>2020-04-12T15:16:24Z</time>
      </trkpt>
      <trkpt lat="46.07074" lon="6.30047">
        <ele>593.27</ele>
        <time>2020-04-12T15:16:31Z</time>
      </trkpt>
      <trkpt lat="46.07078" lon="6.30056">
        <ele>593.27</ele>
        <time>2020-04-12T15:16:32Z</time>
      </trkpt>
      <trkpt lat="46.07078" lon="6.30057">
        <ele>592.79</ele>
        <time>2020-04-12T15:16:33Z</time>
      </trkpt>
      <trkpt lat="46.07084" lon="6.30081">
        <ele>592.79</ele>
        <time>2020-04-12T15:16:34Z</time>
      </trkpt>
      <trkpt lat="46.07082" lon="6.30096">
        <ele>592.31</ele>
        <time>2020-04-12T15:16:35Z</time>
      </trkpt>
      <trkpt lat="46.07077" lon="6.30108">
        <ele>592.31</ele>
        <time>2020-04-12T15:16:36Z</time>
      </trkpt>
      <trkpt lat="46.07072" lon="6.30121">
        <ele>591.83</ele>
        <time>2020-04-12T15:16:37Z</time>
      </trkpt>
      <trkpt lat="46.07066" lon="6.30133">
        <ele>591.35</ele>
        <time>2020-04-12T15:16:38Z</time>
      </trkpt>
      <trkpt lat="46.07059" lon="6.3015">
        <ele>590.87</ele>
        <time>2020-04-12T15:16:39Z</time>
      </trkpt>
      <trkpt lat="46.07056" lon="6.30161">
        <ele>590.39</ele>
        <time>2020-04-12T15:16:40Z</time>
      </trkpt>
      <trkpt lat="46.07047" lon="6.30205">
        <ele>588.46</ele>
        <time>2020-04-12T15:16:43Z</time>
      </trkpt>
      <trkpt lat="46.07045" lon="6.30217">
        <ele>587.98</ele>
        <time>2020-04-12T15:16:44Z</time>
      </trkpt>
      <trkpt lat="46.07031" lon="6.30238">
        <ele>587.5</ele>
        <time>2020-04-12T15:16:45Z</time>
      </trkpt>
      <trkpt lat="46.07029" lon="6.30239">
        <ele>587.5</ele>
        <time>2020-04-12T15:16:46Z</time>
      </trkpt>
      <trkpt lat="46.07018" lon="6.30244">
        <ele>587.5</ele>
        <time>2020-04-12T15:16:47Z</time>
      </trkpt>
      <trkpt lat="46.06919" lon="6.30292">
        <ele>586.06</ele>
        <time>2020-04-12T15:16:55Z</time>
      </trkpt>
      <trkpt lat="46.06867" lon="6.30318">
        <ele>585.58</ele>
        <time>2020-04-12T15:17:02Z</time>
      </trkpt>
      <trkpt lat="46.06859" lon="6.30321">
        <ele>585.58</ele>
        <time>2020-04-12T15:17:03Z</time>
      </trkpt>
      <trkpt lat="46.06859" lon="6.30328">
        <ele>585.58</ele>
        <time>2020-04-12T15:17:04Z</time>
      </trkpt>
      <trkpt lat="46.06859" lon="6.30339">
        <ele>585.58</ele>
        <time>2020-04-12T15:17:05Z</time>
      </trkpt>
      <trkpt lat="46.06858" lon="6.30349">
        <ele>585.58</ele>
        <time>2020-04-12T15:17:06Z</time>
      </trkpt>
      <trkpt lat="46.06858" lon="6.30361">
        <ele>585.1</ele>
        <time>2020-04-12T15:17:07Z</time>
      </trkpt>
      <trkpt lat="46.06857" lon="6.30375">
        <ele>585.1</ele>
        <time>2020-04-12T15:17:08Z</time>
      </trkpt>
      <trkpt lat="46.06856" lon="6.30387">
        <ele>584.14</ele>
        <time>2020-04-12T15:17:09Z</time>
      </trkpt>
      <trkpt lat="46.06851" lon="6.304">
        <ele>583.66</ele>
        <time>2020-04-12T15:17:10Z</time>
      </trkpt>
      <trkpt lat="46.06847" lon="6.30412">
        <ele>583.18</ele>
        <time>2020-04-12T15:17:11Z</time>
      </trkpt>
      <trkpt lat="46.06828" lon="6.30468">
        <ele>581.25</ele>
        <time>2020-04-12T15:17:16Z</time>
      </trkpt>
      <trkpt lat="46.06824" lon="6.30478">
        <ele>581.73</ele>
        <time>2020-04-12T15:17:17Z</time>
      </trkpt>
      <trkpt lat="46.06798" lon="6.30554">
        <ele>581.73</ele>
        <time>2020-04-12T15:17:23Z</time>
      </trkpt>
      <trkpt lat="46.06793" lon="6.30568">
        <ele>581.25</ele>
        <time>2020-04-12T15:17:24Z</time>
      </trkpt>
      <trkpt lat="46.06746" lon="6.30701">
        <ele>576.93</ele>
        <time>2020-04-12T15:17:33Z</time>
      </trkpt>
      <trkpt lat="46.0674" lon="6.30715">
        <ele>576.93</ele>
        <time>2020-04-12T15:17:34Z</time>
      </trkpt>
      <trkpt lat="46.06725" lon="6.30742">
        <ele>575.97</ele>
        <time>2020-04-12T15:17:36Z</time>
      </trkpt>
      <trkpt lat="46.06718" lon="6.30755">
        <ele>575.97</ele>
        <time>2020-04-12T15:17:37Z</time>
      </trkpt>
      <trkpt lat="46.0666" lon="6.30862">
        <ele>572.12</ele>
        <time>2020-04-12T15:17:45Z</time>
      </trkpt>
      <trkpt lat="46.06654" lon="6.30873">
        <ele>571.64</ele>
        <time>2020-04-12T15:17:46Z</time>
      </trkpt>
      <trkpt lat="46.06649" lon="6.30882">
        <ele>571.16</ele>
        <time>2020-04-12T15:17:47Z</time>
      </trkpt>
      <trkpt lat="46.06644" lon="6.3089">
        <ele>570.2</ele>
        <time>2020-04-12T15:17:48Z</time>
      </trkpt>
      <trkpt lat="46.06641" lon="6.30896">
        <ele>569.72</ele>
        <time>2020-04-12T15:17:49Z</time>
      </trkpt>
      <trkpt lat="46.06641" lon="6.30907">
        <ele>568.76</ele>
        <time>2020-04-12T15:17:50Z</time>
      </trkpt>
      <trkpt lat="46.06644" lon="6.30909">
        <ele>568.28</ele>
        <time>2020-04-12T15:17:51Z</time>
      </trkpt>
      <trkpt lat="46.06649" lon="6.30911">
        <ele>567.8</ele>
        <time>2020-04-12T15:17:52Z</time>
      </trkpt>
      <trkpt lat="46.06656" lon="6.3091">
        <ele>567.8</ele>
        <time>2020-04-12T15:17:53Z</time>
      </trkpt>
      <trkpt lat="46.06664" lon="6.30908">
        <ele>567.32</ele>
        <time>2020-04-12T15:17:54Z</time>
      </trkpt>
      <trkpt lat="46.06691" lon="6.30901">
        <ele>567.8</ele>
        <time>2020-04-12T15:17:57Z</time>
      </trkpt>
      <trkpt lat="46.06698" lon="6.30891">
        <ele>568.76</ele>
        <time>2020-04-12T15:17:58Z</time>
      </trkpt>
      <trkpt lat="46.06705" lon="6.30881">
        <ele>569.72</ele>
        <time>2020-04-12T15:17:59Z</time>
      </trkpt>
      <trkpt lat="46.06741" lon="6.30825">
        <ele>571.64</ele>
        <time>2020-04-12T15:18:05Z</time>
      </trkpt>
      <trkpt lat="46.06744" lon="6.3082">
        <ele>571.64</ele>
        <time>2020-04-12T15:18:06Z</time>
      </trkpt>
      <trkpt lat="46.06752" lon="6.30833">
        <ele>570.68</ele>
        <time>2020-04-12T15:18:10Z</time>
      </trkpt>
      <trkpt lat="46.06749" lon="6.30836">
        <ele>570.68</ele>
        <time>2020-04-12T15:18:24Z</time>
      </trkpt>
      <trkpt lat="46.06751" lon="6.30831">
        <ele>561.55</ele>
        <time>2020-04-12T15:41:26Z</time>
      </trkpt>
      <trkpt lat="46.06758" lon="6.30798">
        <ele>564.43</ele>
        <time>2020-04-12T15:41:28Z</time>
      </trkpt>
      <trkpt lat="46.06746" lon="6.30817">
        <ele>564.43</ele>
        <time>2020-04-12T15:41:29Z</time>
      </trkpt>
      <trkpt lat="46.06748" lon="6.30814">
        <ele>565.39</ele>
        <time>2020-04-12T15:41:30Z</time>
      </trkpt>
      <trkpt lat="46.06748" lon="6.30813">
        <ele>566.35</ele>
        <time>2020-04-12T15:41:31Z</time>
      </trkpt>
      <trkpt lat="46.06748" lon="6.30814">
        <ele>566.83</ele>
        <time>2020-04-12T15:41:35Z</time>
      </trkpt>
      <trkpt lat="46.06748" lon="6.30814">
        <ele>566.83</ele>
        <time>2020-04-12T15:41:36Z</time>
      </trkpt>
      <trkpt lat="46.06748" lon="6.30813">
        <ele>566.83</ele>
        <time>2020-04-12T15:41:37Z</time>
      </trkpt>
      <trkpt lat="46.06749" lon="6.30812">
        <ele>567.32</ele>
        <time>2020-04-12T15:41:38Z</time>
      </trkpt>
      <trkpt lat="46.0675" lon="6.3081">
        <ele>567.32</ele>
        <time>2020-04-12T15:41:39Z</time>
      </trkpt>
      <trkpt lat="46.06753" lon="6.30807">
        <ele>568.28</ele>
        <time>2020-04-12T15:41:40Z</time>
      </trkpt>
      <trkpt lat="46.06756" lon="6.30802">
        <ele>568.28</ele>
        <time>2020-04-12T15:41:41Z</time>
      </trkpt>
      <trkpt lat="46.06758" lon="6.30798">
        <ele>568.28</ele>
        <time>2020-04-12T15:41:42Z</time>
      </trkpt>
      <trkpt lat="46.06773" lon="6.30786">
        <ele>568.76</ele>
        <time>2020-04-12T15:41:44Z</time>
      </trkpt>
      <trkpt lat="46.06779" lon="6.30782">
        <ele>569.24</ele>
        <time>2020-04-12T15:41:45Z</time>
      </trkpt>
      <trkpt lat="46.06784" lon="6.30777">
        <ele>569.24</ele>
        <time>2020-04-12T15:41:46Z</time>
      </trkpt>
      <trkpt lat="46.0679" lon="6.30773">
        <ele>569.72</ele>
        <time>2020-04-12T15:41:47Z</time>
      </trkpt>
      <trkpt lat="46.06793" lon="6.3077">
        <ele>570.68</ele>
        <time>2020-04-12T15:41:48Z</time>
      </trkpt>
      <trkpt lat="46.06795" lon="6.30769">
        <ele>570.68</ele>
        <time>2020-04-12T15:41:49Z</time>
      </trkpt>
      <trkpt lat="46.06795" lon="6.30769">
        <ele>571.64</ele>
        <time>2020-04-12T15:41:50Z</time>
      </trkpt>
      <trkpt lat="46.06798" lon="6.30766">
        <ele>572.12</ele>
        <time>2020-04-12T15:41:52Z</time>
      </trkpt>
      <trkpt lat="46.06797" lon="6.30757">
        <ele>572.6</ele>
        <time>2020-04-12T15:41:53Z</time>
      </trkpt>
      <trkpt lat="46.06786" lon="6.30692">
        <ele>573.56</ele>
        <time>2020-04-12T15:41:57Z</time>
      </trkpt>
      <trkpt lat="46.06785" lon="6.30669">
        <ele>574.04</ele>
        <time>2020-04-12T15:41:58Z</time>
      </trkpt>
      <trkpt lat="46.06783" lon="6.30647">
        <ele>575.01</ele>
        <time>2020-04-12T15:41:59Z</time>
      </trkpt>
      <trkpt lat="46.06782" lon="6.30626">
        <ele>576.45</ele>
        <time>2020-04-12T15:42:00Z</time>
      </trkpt>
      <trkpt lat="46.06784" lon="6.30606">
        <ele>577.41</ele>
        <time>2020-04-12T15:42:01Z</time>
      </trkpt>
      <trkpt lat="46.06788" lon="6.30588">
        <ele>578.37</ele>
        <time>2020-04-12T15:42:02Z</time>
      </trkpt>
      <trkpt lat="46.06792" lon="6.30572">
        <ele>579.81</ele>
        <time>2020-04-12T15:42:03Z</time>
      </trkpt>
      <trkpt lat="46.06821" lon="6.30487">
        <ele>583.18</ele>
        <time>2020-04-12T15:42:10Z</time>
      </trkpt>
      <trkpt lat="46.06825" lon="6.30477">
        <ele>583.18</ele>
        <time>2020-04-12T15:42:11Z</time>
      </trkpt>
      <trkpt lat="46.06828" lon="6.30467">
        <ele>582.7</ele>
        <time>2020-04-12T15:42:12Z</time>
      </trkpt>
      <trkpt lat="46.06858" lon="6.30371">
        <ele>583.66</ele>
        <time>2020-04-12T15:42:20Z</time>
      </trkpt>
      <trkpt lat="46.06859" lon="6.3034">
        <ele>583.66</ele>
        <time>2020-04-12T15:42:22Z</time>
      </trkpt>
      <trkpt lat="46.06861" lon="6.3028">
        <ele>585.1</ele>
        <time>2020-04-12T15:42:26Z</time>
      </trkpt>
      <trkpt lat="46.06861" lon="6.30268">
        <ele>585.1</ele>
        <time>2020-04-12T15:42:27Z</time>
      </trkpt>
      <trkpt lat="46.06863" lon="6.30254">
        <ele>585.1</ele>
        <time>2020-04-12T15:42:28Z</time>
      </trkpt>
      <trkpt lat="46.06866" lon="6.30242">
        <ele>585.58</ele>
        <time>2020-04-12T15:42:29Z</time>
      </trkpt>
      <trkpt lat="46.06885" lon="6.30233">
        <ele>586.06</ele>
        <time>2020-04-12T15:42:30Z</time>
      </trkpt>
      <trkpt lat="46.06886" lon="6.30233">
        <ele>586.54</ele>
        <time>2020-04-12T15:42:31Z</time>
      </trkpt>
      <trkpt lat="46.06899" lon="6.30226">
        <ele>587.02</ele>
        <time>2020-04-12T15:42:32Z</time>
      </trkpt>
      <trkpt lat="46.06913" lon="6.30219">
        <ele>587.5</ele>
        <time>2020-04-12T15:42:33Z</time>
      </trkpt>
      <trkpt lat="46.06965" lon="6.30183">
        <ele>588.95</ele>
        <time>2020-04-12T15:42:37Z</time>
      </trkpt>
      <trkpt lat="46.06976" lon="6.30172">
        <ele>589.43</ele>
        <time>2020-04-12T15:42:38Z</time>
      </trkpt>
      <trkpt lat="46.07043" lon="6.30078">
        <ele>594.71</ele>
        <time>2020-04-12T15:42:45Z</time>
      </trkpt>
      <trkpt lat="46.07049" lon="6.30069">
        <ele>595.19</ele>
        <time>2020-04-12T15:42:46Z</time>
      </trkpt>
      <trkpt lat="46.07055" lon="6.30062">
        <ele>595.67</ele>
        <time>2020-04-12T15:42:47Z</time>
      </trkpt>
      <trkpt lat="46.0706" lon="6.30057">
        <ele>596.15</ele>
        <time>2020-04-12T15:42:48Z</time>
      </trkpt>
      <trkpt lat="46.07065" lon="6.30054">
        <ele>596.64</ele>
        <time>2020-04-12T15:42:49Z</time>
      </trkpt>
      <trkpt lat="46.07078" lon="6.30057">
        <ele>597.12</ele>
        <time>2020-04-12T15:42:50Z</time>
      </trkpt>
      <trkpt lat="46.07078" lon="6.30057">
        <ele>597.6</ele>
        <time>2020-04-12T15:42:51Z</time>
      </trkpt>
      <trkpt lat="46.07087" lon="6.3006">
        <ele>598.08</ele>
        <time>2020-04-12T15:42:52Z</time>
      </trkpt>
      <trkpt lat="46.07093" lon="6.30053">
        <ele>598.08</ele>
        <time>2020-04-12T15:42:53Z</time>
      </trkpt>
      <trkpt lat="46.071" lon="6.30039">
        <ele>598.56</ele>
        <time>2020-04-12T15:42:54Z</time>
      </trkpt>
      <trkpt lat="46.07111" lon="6.3003">
        <ele>599.52</ele>
        <time>2020-04-12T15:42:55Z</time>
      </trkpt>
      <trkpt lat="46.07123" lon="6.3002">
        <ele>600</ele>
        <time>2020-04-12T15:42:56Z</time>
      </trkpt>
      <trkpt lat="46.07135" lon="6.30009">
        <ele>600.48</ele>
        <time>2020-04-12T15:42:57Z</time>
      </trkpt>
      <trkpt lat="46.07247" lon="6.29917">
        <ele>603.36</ele>
        <time>2020-04-12T15:43:06Z</time>
      </trkpt>
      <trkpt lat="46.0726" lon="6.29907">
        <ele>602.88</ele>
        <time>2020-04-12T15:43:07Z</time>
      </trkpt>
      <trkpt lat="46.07322" lon="6.29858">
        <ele>602.4</ele>
        <time>2020-04-12T15:43:13Z</time>
      </trkpt>
      <trkpt lat="46.07329" lon="6.29853">
        <ele>601.92</ele>
        <time>2020-04-12T15:43:14Z</time>
      </trkpt>
      <trkpt lat="46.07403" lon="6.298">
        <ele>603.85</ele>
        <time>2020-04-12T15:43:21Z</time>
      </trkpt>
      <trkpt lat="46.07503" lon="6.2974">
        <ele>604.33</ele>
        <time>2020-04-12T15:43:28Z</time>
      </trkpt>
      <trkpt lat="46.07519" lon="6.29736">
        <ele>604.33</ele>
        <time>2020-04-12T15:43:29Z</time>
      </trkpt>
      <trkpt lat="46.07535" lon="6.29736">
        <ele>604.33</ele>
        <time>2020-04-12T15:43:30Z</time>
      </trkpt>
      <trkpt lat="46.07552" lon="6.29737">
        <ele>604.33</ele>
        <time>2020-04-12T15:43:31Z</time>
      </trkpt>
      <trkpt lat="46.07569" lon="6.29738">
        <ele>603.85</ele>
        <time>2020-04-12T15:43:32Z</time>
      </trkpt>
      <trkpt lat="46.07586" lon="6.29746">
        <ele>603.36</ele>
        <time>2020-04-12T15:43:33Z</time>
      </trkpt>
      <trkpt lat="46.07634" lon="6.29761">
        <ele>600.96</ele>
        <time>2020-04-12T15:43:36Z</time>
      </trkpt>
      <trkpt lat="46.07651" lon="6.29761">
        <ele>600</ele>
        <time>2020-04-12T15:43:37Z</time>
      </trkpt>
      <trkpt lat="46.07667" lon="6.29759">
        <ele>599.04</ele>
        <time>2020-04-12T15:43:38Z</time>
      </trkpt>
      <trkpt lat="46.07683" lon="6.29749">
        <ele>597.6</ele>
        <time>2020-04-12T15:43:39Z</time>
      </trkpt>
      <trkpt lat="46.07699" lon="6.29738">
        <ele>596.15</ele>
        <time>2020-04-12T15:43:40Z</time>
      </trkpt>
      <trkpt lat="46.07716" lon="6.29727">
        <ele>594.71</ele>
        <time>2020-04-12T15:43:41Z</time>
      </trkpt>
      <trkpt lat="46.07748" lon="6.29708">
        <ele>591.35</ele>
        <time>2020-04-12T15:43:43Z</time>
      </trkpt>
      <trkpt lat="46.07766" lon="6.29694">
        <ele>589.91</ele>
        <time>2020-04-12T15:43:44Z</time>
      </trkpt>
      <trkpt lat="46.07802" lon="6.29662">
        <ele>587.5</ele>
        <time>2020-04-12T15:43:47Z</time>
      </trkpt>
      <trkpt lat="46.0781" lon="6.29652">
        <ele>587.5</ele>
        <time>2020-04-12T15:43:48Z</time>
      </trkpt>
      <trkpt lat="46.07816" lon="6.29643">
        <ele>587.98</ele>
        <time>2020-04-12T15:43:49Z</time>
      </trkpt>
      <trkpt lat="46.0782" lon="6.29635">
        <ele>588.46</ele>
        <time>2020-04-12T15:43:50Z</time>
      </trkpt>
      <trkpt lat="46.07819" lon="6.29624">
        <ele>588.95</ele>
        <time>2020-04-12T15:43:51Z</time>
      </trkpt>
      <trkpt lat="46.07814" lon="6.29621">
        <ele>588.95</ele>
        <time>2020-04-12T15:43:52Z</time>
      </trkpt>
      <trkpt lat="46.07808" lon="6.29617">
        <ele>589.43</ele>
        <time>2020-04-12T15:43:53Z</time>
      </trkpt>
      <trkpt lat="46.07802" lon="6.29618">
        <ele>588.95</ele>
        <time>2020-04-12T15:43:54Z</time>
      </trkpt>
      <trkpt lat="46.07793" lon="6.29624">
        <ele>588.95</ele>
        <time>2020-04-12T15:43:55Z</time>
      </trkpt>
      <trkpt lat="46.07784" lon="6.2963">
        <ele>588.95</ele>
        <time>2020-04-12T15:43:56Z</time>
      </trkpt>
      <trkpt lat="46.07775" lon="6.29638">
        <ele>589.43</ele>
        <time>2020-04-12T15:43:57Z</time>
      </trkpt>
      <trkpt lat="46.07766" lon="6.29644">
        <ele>589.43</ele>
        <time>2020-04-12T15:43:58Z</time>
      </trkpt>
      <trkpt lat="46.07758" lon="6.29651">
        <ele>589.43</ele>
        <time>2020-04-12T15:43:59Z</time>
      </trkpt>
      <trkpt lat="46.07748" lon="6.29648">
        <ele>589.43</ele>
        <time>2020-04-12T15:44:00Z</time>
      </trkpt>
      <trkpt lat="46.07739" lon="6.29643">
        <ele>589.43</ele>
        <time>2020-04-12T15:44:01Z</time>
      </trkpt>
      <trkpt lat="46.0773" lon="6.29639">
        <ele>589.43</ele>
        <time>2020-04-12T15:44:02Z</time>
      </trkpt>
      <trkpt lat="46.0772" lon="6.29629">
        <ele>589.91</ele>
        <time>2020-04-12T15:44:03Z</time>
      </trkpt>
      <trkpt lat="46.07715" lon="6.29613">
        <ele>590.87</ele>
        <time>2020-04-12T15:44:04Z</time>
      </trkpt>
      <trkpt lat="46.07708" lon="6.29593">
        <ele>591.35</ele>
        <time>2020-04-12T15:44:05Z</time>
      </trkpt>
      <trkpt lat="46.0766" lon="6.29455">
        <ele>597.12</ele>
        <time>2020-04-12T15:44:09Z</time>
      </trkpt>
      <trkpt lat="46.07565" lon="6.2926">
        <ele>609.61</ele>
        <time>2020-04-12T15:44:14Z</time>
      </trkpt>
      <trkpt lat="46.07529" lon="6.29196">
        <ele>618.26</ele>
        <time>2020-04-12T15:44:18Z</time>
      </trkpt>
      <trkpt lat="46.07457" lon="6.28982">
        <ele>624.99</ele>
        <time>2020-04-12T15:44:23Z</time>
      </trkpt>
      <trkpt lat="46.07443" lon="6.28956">
        <ele>625.96</ele>
        <time>2020-04-12T15:44:24Z</time>
      </trkpt>
      <trkpt lat="46.07428" lon="6.28932">
        <ele>626.92</ele>
        <time>2020-04-12T15:44:25Z</time>
      </trkpt>
      <trkpt lat="46.07412" lon="6.28908">
        <ele>627.88</ele>
        <time>2020-04-12T15:44:26Z</time>
      </trkpt>
      <trkpt lat="46.07394" lon="6.28888">
        <ele>629.32</ele>
        <time>2020-04-12T15:44:27Z</time>
      </trkpt>
      <trkpt lat="46.07374" lon="6.28872">
        <ele>630.28</ele>
        <time>2020-04-12T15:44:28Z</time>
      </trkpt>
      <trkpt lat="46.07353" lon="6.28858">
        <ele>631.72</ele>
        <time>2020-04-12T15:44:29Z</time>
      </trkpt>
      <trkpt lat="46.07331" lon="6.28848">
        <ele>632.68</ele>
        <time>2020-04-12T15:44:30Z</time>
      </trkpt>
      <trkpt lat="46.07309" lon="6.2884">
        <ele>633.65</ele>
        <time>2020-04-12T15:44:31Z</time>
      </trkpt>
      <trkpt lat="46.07286" lon="6.28835">
        <ele>635.09</ele>
        <time>2020-04-12T15:44:32Z</time>
      </trkpt>
      <trkpt lat="46.07263" lon="6.28831">
        <ele>636.53</ele>
        <time>2020-04-12T15:44:33Z</time>
      </trkpt>
      <trkpt lat="46.07239" lon="6.28828">
        <ele>637.97</ele>
        <time>2020-04-12T15:44:34Z</time>
      </trkpt>
      <trkpt lat="46.07047" lon="6.28805">
        <ele>649.03</ele>
        <time>2020-04-12T15:44:42Z</time>
      </trkpt>
      <trkpt lat="46.07024" lon="6.28798">
        <ele>650.47</ele>
        <time>2020-04-12T15:44:43Z</time>
      </trkpt>
      <trkpt lat="46.07003" lon="6.28784">
        <ele>651.43</ele>
        <time>2020-04-12T15:44:44Z</time>
      </trkpt>
      <trkpt lat="46.06851" lon="6.28685">
        <ele>660.08</ele>
        <time>2020-04-12T15:44:51Z</time>
      </trkpt>
      <trkpt lat="46.06805" lon="6.28674">
        <ele>662.49</ele>
        <time>2020-04-12T15:44:53Z</time>
      </trkpt>
      <trkpt lat="46.06782" lon="6.28674">
        <ele>663.45</ele>
        <time>2020-04-12T15:44:54Z</time>
      </trkpt>
      <trkpt lat="46.06759" lon="6.28678">
        <ele>664.41</ele>
        <time>2020-04-12T15:44:55Z</time>
      </trkpt>
      <trkpt lat="46.06736" lon="6.28683">
        <ele>665.37</ele>
        <time>2020-04-12T15:44:56Z</time>
      </trkpt>
      <trkpt lat="46.06714" lon="6.28693">
        <ele>666.81</ele>
        <time>2020-04-12T15:44:57Z</time>
      </trkpt>
      <trkpt lat="46.06691" lon="6.28706">
        <ele>668.25</ele>
        <time>2020-04-12T15:44:58Z</time>
      </trkpt>
      <trkpt lat="46.06669" lon="6.2872">
        <ele>669.22</ele>
        <time>2020-04-12T15:44:59Z</time>
      </trkpt>
      <trkpt lat="46.06487" lon="6.28824">
        <ele>680.27</ele>
        <time>2020-04-12T15:45:08Z</time>
      </trkpt>
      <trkpt lat="46.06474" lon="6.28828">
        <ele>681.23</ele>
        <time>2020-04-12T15:45:09Z</time>
      </trkpt>
      <trkpt lat="46.06452" lon="6.28819">
        <ele>682.19</ele>
        <time>2020-04-12T15:45:10Z</time>
      </trkpt>
      <trkpt lat="46.06439" lon="6.28817">
        <ele>683.63</ele>
        <time>2020-04-12T15:45:12Z</time>
      </trkpt>
      <trkpt lat="46.06431" lon="6.28824">
        <ele>684.12</ele>
        <time>2020-04-12T15:45:13Z</time>
      </trkpt>
      <trkpt lat="46.06409" lon="6.2884">
        <ele>684.6</ele>
        <time>2020-04-12T15:45:15Z</time>
      </trkpt>
      <trkpt lat="46.06393" lon="6.28843">
        <ele>685.08</ele>
        <time>2020-04-12T15:45:16Z</time>
      </trkpt>
      <trkpt lat="46.06376" lon="6.28847">
        <ele>685.56</ele>
        <time>2020-04-12T15:45:17Z</time>
      </trkpt>
      <trkpt lat="46.0625" lon="6.28881">
        <ele>691.81</ele>
        <time>2020-04-12T15:45:22Z</time>
      </trkpt>
      <trkpt lat="46.05929" lon="6.28988">
        <ele>710.55</ele>
        <time>2020-04-12T15:45:33Z</time>
      </trkpt>
      <trkpt lat="46.05811" lon="6.29009">
        <ele>716.32</ele>
        <time>2020-04-12T15:45:37Z</time>
      </trkpt>
      <trkpt lat="46.05783" lon="6.29004">
        <ele>717.28</ele>
        <time>2020-04-12T15:45:38Z</time>
      </trkpt>
      <trkpt lat="46.05755" lon="6.28995">
        <ele>718.24</ele>
        <time>2020-04-12T15:45:39Z</time>
      </trkpt>
      <trkpt lat="46.05728" lon="6.28984">
        <ele>719.68</ele>
        <time>2020-04-12T15:45:40Z</time>
      </trkpt>
      <trkpt lat="46.05703" lon="6.28967">
        <ele>721.13</ele>
        <time>2020-04-12T15:45:41Z</time>
      </trkpt>
      <trkpt lat="46.05678" lon="6.28949">
        <ele>722.57</ele>
        <time>2020-04-12T15:45:42Z</time>
      </trkpt>
      <trkpt lat="46.05656" lon="6.28926">
        <ele>724.01</ele>
        <time>2020-04-12T15:45:43Z</time>
      </trkpt>
      <trkpt lat="46.05637" lon="6.28897">
        <ele>725.93</ele>
        <time>2020-04-12T15:45:44Z</time>
      </trkpt>
      <trkpt lat="46.05618" lon="6.28867">
        <ele>727.37</ele>
        <time>2020-04-12T15:45:45Z</time>
      </trkpt>
      <trkpt lat="46.05601" lon="6.28835">
        <ele>728.82</ele>
        <time>2020-04-12T15:45:46Z</time>
      </trkpt>
      <trkpt lat="46.05587" lon="6.288">
        <ele>730.26</ele>
        <time>2020-04-12T15:45:47Z</time>
      </trkpt>
      <trkpt lat="46.05499" lon="6.2855">
        <ele>738.91</ele>
        <time>2020-04-12T15:45:54Z</time>
      </trkpt>
      <trkpt lat="46.05375" lon="6.28196">
        <ele>747.08</ele>
        <time>2020-04-12T15:46:04Z</time>
      </trkpt>
      <trkpt lat="46.05192" lon="6.27667">
        <ele>756.21</ele>
        <time>2020-04-12T15:46:18Z</time>
      </trkpt>
      <trkpt lat="46.05134" lon="6.27383">
        <ele>759.1</ele>
        <time>2020-04-12T15:46:25Z</time>
      </trkpt>
      <trkpt lat="46.05128" lon="6.2709">
        <ele>766.79</ele>
        <time>2020-04-12T15:46:32Z</time>
      </trkpt>
      <trkpt lat="46.05148" lon="6.26845">
        <ele>771.11</ele>
        <time>2020-04-12T15:46:38Z</time>
      </trkpt>
      <trkpt lat="46.05148" lon="6.26806">
        <ele>771.6</ele>
        <time>2020-04-12T15:46:39Z</time>
      </trkpt>
      <trkpt lat="46.05143" lon="6.26768">
        <ele>771.6</ele>
        <time>2020-04-12T15:46:40Z</time>
      </trkpt>
      <trkpt lat="46.05138" lon="6.2673">
        <ele>772.08</ele>
        <time>2020-04-12T15:46:41Z</time>
      </trkpt>
      <trkpt lat="46.05128" lon="6.26693">
        <ele>772.08</ele>
        <time>2020-04-12T15:46:42Z</time>
      </trkpt>
      <trkpt lat="46.05118" lon="6.26656">
        <ele>772.56</ele>
        <time>2020-04-12T15:46:43Z</time>
      </trkpt>
      <trkpt lat="46.05104" lon="6.26622">
        <ele>773.52</ele>
        <time>2020-04-12T15:46:44Z</time>
      </trkpt>
      <trkpt lat="46.05088" lon="6.2659">
        <ele>774.48</ele>
        <time>2020-04-12T15:46:45Z</time>
      </trkpt>
      <trkpt lat="46.05071" lon="6.2656">
        <ele>775.44</ele>
        <time>2020-04-12T15:46:46Z</time>
      </trkpt>
      <trkpt lat="46.0505" lon="6.26533">
        <ele>776.88</ele>
        <time>2020-04-12T15:46:47Z</time>
      </trkpt>
      <trkpt lat="46.05027" lon="6.2651">
        <ele>778.32</ele>
        <time>2020-04-12T15:46:48Z</time>
      </trkpt>
      <trkpt lat="46.05003" lon="6.26487">
        <ele>779.77</ele>
        <time>2020-04-12T15:46:49Z</time>
      </trkpt>
      <trkpt lat="46.04978" lon="6.26467">
        <ele>781.69</ele>
        <time>2020-04-12T15:46:50Z</time>
      </trkpt>
      <trkpt lat="46.04906" lon="6.26403">
        <ele>786.5</ele>
        <time>2020-04-12T15:46:53Z</time>
      </trkpt>
      <trkpt lat="46.04884" lon="6.26378">
        <ele>787.94</ele>
        <time>2020-04-12T15:46:54Z</time>
      </trkpt>
      <trkpt lat="46.04864" lon="6.26351">
        <ele>789.38</ele>
        <time>2020-04-12T15:46:55Z</time>
      </trkpt>
      <trkpt lat="46.04847" lon="6.26321">
        <ele>790.82</ele>
        <time>2020-04-12T15:46:56Z</time>
      </trkpt>
      <trkpt lat="46.0483" lon="6.26291">
        <ele>792.26</ele>
        <time>2020-04-12T15:46:57Z</time>
      </trkpt>
      <trkpt lat="46.04711" lon="6.26041">
        <ele>801.88</ele>
        <time>2020-04-12T15:47:05Z</time>
      </trkpt>
      <trkpt lat="46.04632" lon="6.2588">
        <ele>804.28</ele>
        <time>2020-04-12T15:47:12Z</time>
      </trkpt>
      <trkpt lat="46.04562" lon="6.25738">
        <ele>805.72</ele>
        <time>2020-04-12T15:47:17Z</time>
      </trkpt>
      <trkpt lat="46.04454" lon="6.25506">
        <ele>807.16</ele>
        <time>2020-04-12T15:47:24Z</time>
      </trkpt>
      <trkpt lat="46.04444" lon="6.25468">
        <ele>807.16</ele>
        <time>2020-04-12T15:47:25Z</time>
      </trkpt>
      <trkpt lat="46.04371" lon="6.25157">
        <ele>802.36</ele>
        <time>2020-04-12T15:47:33Z</time>
      </trkpt>
      <trkpt lat="46.04346" lon="6.25086">
        <ele>800.44</ele>
        <time>2020-04-12T15:47:35Z</time>
      </trkpt>
      <trkpt lat="46.0433" lon="6.25054">
        <ele>798.99</ele>
        <time>2020-04-12T15:47:36Z</time>
      </trkpt>
      <trkpt lat="46.04313" lon="6.25021">
        <ele>797.55</ele>
        <time>2020-04-12T15:47:37Z</time>
      </trkpt>
      <trkpt lat="46.04294" lon="6.24989">
        <ele>796.11</ele>
        <time>2020-04-12T15:47:38Z</time>
      </trkpt>
      <trkpt lat="46.04272" lon="6.2496">
        <ele>794.19</ele>
        <time>2020-04-12T15:47:39Z</time>
      </trkpt>
      <trkpt lat="46.04129" lon="6.24771">
        <ele>791.3</ele>
        <time>2020-04-12T15:47:46Z</time>
      </trkpt>
      <trkpt lat="46.04107" lon="6.2475">
        <ele>792.26</ele>
        <time>2020-04-12T15:47:47Z</time>
      </trkpt>
      <trkpt lat="46.04081" lon="6.24735">
        <ele>793.22</ele>
        <time>2020-04-12T15:47:48Z</time>
      </trkpt>
      <trkpt lat="46.04056" lon="6.24722">
        <ele>794.19</ele>
        <time>2020-04-12T15:47:49Z</time>
      </trkpt>
      <trkpt lat="46.04031" lon="6.24714">
        <ele>795.15</ele>
        <time>2020-04-12T15:47:50Z</time>
      </trkpt>
      <trkpt lat="46.04005" lon="6.24707">
        <ele>795.15</ele>
        <time>2020-04-12T15:47:51Z</time>
      </trkpt>
      <trkpt lat="46.03956" lon="6.24685">
        <ele>795.63</ele>
        <time>2020-04-12T15:47:53Z</time>
      </trkpt>
      <trkpt lat="46.03933" lon="6.2467">
        <ele>795.63</ele>
        <time>2020-04-12T15:47:54Z</time>
      </trkpt>
      <trkpt lat="46.03911" lon="6.24648">
        <ele>795.63</ele>
        <time>2020-04-12T15:47:55Z</time>
      </trkpt>
      <trkpt lat="46.0389" lon="6.24625">
        <ele>795.63</ele>
        <time>2020-04-12T15:47:56Z</time>
      </trkpt>
      <trkpt lat="46.03871" lon="6.24597">
        <ele>795.15</ele>
        <time>2020-04-12T15:47:57Z</time>
      </trkpt>
      <trkpt lat="46.03856" lon="6.24565">
        <ele>794.67</ele>
        <time>2020-04-12T15:47:58Z</time>
      </trkpt>
      <trkpt lat="46.03842" lon="6.24532">
        <ele>793.71</ele>
        <time>2020-04-12T15:47:59Z</time>
      </trkpt>
      <trkpt lat="46.03834" lon="6.24494">
        <ele>792.74</ele>
        <time>2020-04-12T15:48:00Z</time>
      </trkpt>
      <trkpt lat="46.03824" lon="6.24455">
        <ele>791.78</ele>
        <time>2020-04-12T15:48:01Z</time>
      </trkpt>
      <trkpt lat="46.03814" lon="6.24412">
        <ele>790.34</ele>
        <time>2020-04-12T15:48:02Z</time>
      </trkpt>
      <trkpt lat="46.03779" lon="6.24261">
        <ele>784.09</ele>
        <time>2020-04-12T15:48:06Z</time>
      </trkpt>
      <trkpt lat="46.03767" lon="6.24228">
        <ele>782.17</ele>
        <time>2020-04-12T15:48:07Z</time>
      </trkpt>
      <trkpt lat="46.03752" lon="6.24198">
        <ele>780.73</ele>
        <time>2020-04-12T15:48:08Z</time>
      </trkpt>
      <trkpt lat="46.03735" lon="6.24171">
        <ele>778.81</ele>
        <time>2020-04-12T15:48:09Z</time>
      </trkpt>
      <trkpt lat="46.03717" lon="6.24144">
        <ele>777.36</ele>
        <time>2020-04-12T15:48:10Z</time>
      </trkpt>
      <trkpt lat="46.03699" lon="6.24121">
        <ele>775.44</ele>
        <time>2020-04-12T15:48:11Z</time>
      </trkpt>
      <trkpt lat="46.03679" lon="6.24102">
        <ele>774</ele>
        <time>2020-04-12T15:48:12Z</time>
      </trkpt>
      <trkpt lat="46.03661" lon="6.24086">
        <ele>772.56</ele>
        <time>2020-04-12T15:48:13Z</time>
      </trkpt>
      <trkpt lat="46.03641" lon="6.24076">
        <ele>771.11</ele>
        <time>2020-04-12T15:48:14Z</time>
      </trkpt>
      <trkpt lat="46.03622" lon="6.24073">
        <ele>770.15</ele>
        <time>2020-04-12T15:48:15Z</time>
      </trkpt>
      <trkpt lat="46.03602" lon="6.24072">
        <ele>768.71</ele>
        <time>2020-04-12T15:48:16Z</time>
      </trkpt>
      <trkpt lat="46.03583" lon="6.24074">
        <ele>767.75</ele>
        <time>2020-04-12T15:48:17Z</time>
      </trkpt>
      <trkpt lat="46.03563" lon="6.24081">
        <ele>766.79</ele>
        <time>2020-04-12T15:48:18Z</time>
      </trkpt>
      <trkpt lat="46.03545" lon="6.24092">
        <ele>766.31</ele>
        <time>2020-04-12T15:48:19Z</time>
      </trkpt>
      <trkpt lat="46.03529" lon="6.24105">
        <ele>765.83</ele>
        <time>2020-04-12T15:48:20Z</time>
      </trkpt>
      <trkpt lat="46.03515" lon="6.24128">
        <ele>765.35</ele>
        <time>2020-04-12T15:48:21Z</time>
      </trkpt>
      <trkpt lat="46.03502" lon="6.2415">
        <ele>764.87</ele>
        <time>2020-04-12T15:48:22Z</time>
      </trkpt>
      <trkpt lat="46.03489" lon="6.24172">
        <ele>763.9</ele>
        <time>2020-04-12T15:48:23Z</time>
      </trkpt>
      <trkpt lat="46.0345" lon="6.24232">
        <ele>760.54</ele>
        <time>2020-04-12T15:48:26Z</time>
      </trkpt>
      <trkpt lat="46.03434" lon="6.24244">
        <ele>759.58</ele>
        <time>2020-04-12T15:48:27Z</time>
      </trkpt>
      <trkpt lat="46.03417" lon="6.24254">
        <ele>758.14</ele>
        <time>2020-04-12T15:48:28Z</time>
      </trkpt>
      <trkpt lat="46.03399" lon="6.2426">
        <ele>756.69</ele>
        <time>2020-04-12T15:48:29Z</time>
      </trkpt>
      <trkpt lat="46.03382" lon="6.24262">
        <ele>755.25</ele>
        <time>2020-04-12T15:48:30Z</time>
      </trkpt>
      <trkpt lat="46.03364" lon="6.24258">
        <ele>753.33</ele>
        <time>2020-04-12T15:48:31Z</time>
      </trkpt>
      <trkpt lat="46.03348" lon="6.24251">
        <ele>752.37</ele>
        <time>2020-04-12T15:48:32Z</time>
      </trkpt>
      <trkpt lat="46.03331" lon="6.24238">
        <ele>751.41</ele>
        <time>2020-04-12T15:48:33Z</time>
      </trkpt>
      <trkpt lat="46.03312" lon="6.24223">
        <ele>750.93</ele>
        <time>2020-04-12T15:48:34Z</time>
      </trkpt>
      <trkpt lat="46.03295" lon="6.24205">
        <ele>750.45</ele>
        <time>2020-04-12T15:48:35Z</time>
      </trkpt>
      <trkpt lat="46.03279" lon="6.2418">
        <ele>750.45</ele>
        <time>2020-04-12T15:48:36Z</time>
      </trkpt>
      <trkpt lat="46.03177" lon="6.24045">
        <ele>749</ele>
        <time>2020-04-12T15:48:41Z</time>
      </trkpt>
      <trkpt lat="46.03015" lon="6.23877">
        <ele>745.64</ele>
        <time>2020-04-12T15:48:48Z</time>
      </trkpt>
      <trkpt lat="46.02988" lon="6.23862">
        <ele>745.16</ele>
        <time>2020-04-12T15:48:49Z</time>
      </trkpt>
      <trkpt lat="46.02782" lon="6.23783">
        <ele>740.35</ele>
        <time>2020-04-12T15:48:56Z</time>
      </trkpt>
      <trkpt lat="46.02589" lon="6.23743">
        <ele>731.7</ele>
        <time>2020-04-12T15:49:03Z</time>
      </trkpt>
      <trkpt lat="46.02566" lon="6.23732">
        <ele>730.26</ele>
        <time>2020-04-12T15:49:04Z</time>
      </trkpt>
      <trkpt lat="46.02544" lon="6.23717">
        <ele>729.3</ele>
        <time>2020-04-12T15:49:05Z</time>
      </trkpt>
      <trkpt lat="46.02523" lon="6.23694">
        <ele>728.34</ele>
        <time>2020-04-12T15:49:06Z</time>
      </trkpt>
      <trkpt lat="46.02505" lon="6.23671">
        <ele>727.37</ele>
        <time>2020-04-12T15:49:07Z</time>
      </trkpt>
      <trkpt lat="46.02489" lon="6.23644">
        <ele>726.41</ele>
        <time>2020-04-12T15:49:08Z</time>
      </trkpt>
      <trkpt lat="46.02473" lon="6.23618">
        <ele>725.45</ele>
        <time>2020-04-12T15:49:09Z</time>
      </trkpt>
      <trkpt lat="46.0246" lon="6.23591">
        <ele>724.49</ele>
        <time>2020-04-12T15:49:10Z</time>
      </trkpt>
      <trkpt lat="46.02447" lon="6.23565">
        <ele>723.53</ele>
        <time>2020-04-12T15:49:11Z</time>
      </trkpt>
      <trkpt lat="46.02411" lon="6.23492">
        <ele>721.13</ele>
        <time>2020-04-12T15:49:14Z</time>
      </trkpt>
      <trkpt lat="46.02397" lon="6.23473">
        <ele>720.65</ele>
        <time>2020-04-12T15:49:15Z</time>
      </trkpt>
      <trkpt lat="46.02381" lon="6.23459">
        <ele>719.68</ele>
        <time>2020-04-12T15:49:16Z</time>
      </trkpt>
      <trkpt lat="46.02365" lon="6.23445">
        <ele>718.72</ele>
        <time>2020-04-12T15:49:17Z</time>
      </trkpt>
      <trkpt lat="46.0235" lon="6.23432">
        <ele>717.76</ele>
        <time>2020-04-12T15:49:18Z</time>
      </trkpt>
      <trkpt lat="46.02307" lon="6.23392">
        <ele>714.4</ele>
        <time>2020-04-12T15:49:21Z</time>
      </trkpt>
      <trkpt lat="46.02293" lon="6.2338">
        <ele>713.44</ele>
        <time>2020-04-12T15:49:22Z</time>
      </trkpt>
      <trkpt lat="46.02282" lon="6.23363">
        <ele>711.99</ele>
        <time>2020-04-12T15:49:23Z</time>
      </trkpt>
      <trkpt lat="46.02272" lon="6.23348">
        <ele>711.03</ele>
        <time>2020-04-12T15:49:24Z</time>
      </trkpt>
      <trkpt lat="46.02261" lon="6.23325">
        <ele>710.07</ele>
        <time>2020-04-12T15:49:25Z</time>
      </trkpt>
      <trkpt lat="46.02251" lon="6.23304">
        <ele>710.07</ele>
        <time>2020-04-12T15:49:26Z</time>
      </trkpt>
      <trkpt lat="46.02164" lon="6.23128">
        <ele>707.19</ele>
        <time>2020-04-12T15:49:35Z</time>
      </trkpt>
      <trkpt lat="46.02138" lon="6.23089">
        <ele>706.71</ele>
        <time>2020-04-12T15:49:37Z</time>
      </trkpt>
      <trkpt lat="46.02124" lon="6.23069">
        <ele>706.23</ele>
        <time>2020-04-12T15:49:38Z</time>
      </trkpt>
      <trkpt lat="46.02079" lon="6.23009">
        <ele>704.78</ele>
        <time>2020-04-12T15:49:41Z</time>
      </trkpt>
      <trkpt lat="46.02066" lon="6.22986">
        <ele>704.3</ele>
        <time>2020-04-12T15:49:42Z</time>
      </trkpt>
      <trkpt lat="46.02057" lon="6.22959">
        <ele>703.82</ele>
        <time>2020-04-12T15:49:43Z</time>
      </trkpt>
      <trkpt lat="46.02049" lon="6.22932">
        <ele>703.34</ele>
        <time>2020-04-12T15:49:44Z</time>
      </trkpt>
      <trkpt lat="46.02042" lon="6.22905">
        <ele>702.86</ele>
        <time>2020-04-12T15:49:45Z</time>
      </trkpt>
      <trkpt lat="46.02037" lon="6.22877">
        <ele>702.38</ele>
        <time>2020-04-12T15:49:46Z</time>
      </trkpt>
      <trkpt lat="46.02032" lon="6.22848">
        <ele>701.42</ele>
        <time>2020-04-12T15:49:47Z</time>
      </trkpt>
      <trkpt lat="46.01991" lon="6.22554">
        <ele>696.61</ele>
        <time>2020-04-12T15:49:56Z</time>
      </trkpt>
      <trkpt lat="46.01937" lon="6.22209">
        <ele>688.44</ele>
        <time>2020-04-12T15:50:05Z</time>
      </trkpt>
      <trkpt lat="46.0186" lon="6.21902">
        <ele>684.12</ele>
        <time>2020-04-12T15:50:13Z</time>
      </trkpt>
      <trkpt lat="46.01716" lon="6.21549">
        <ele>680.75</ele>
        <time>2020-04-12T15:50:24Z</time>
      </trkpt>
      <trkpt lat="46.017" lon="6.21518">
        <ele>680.75</ele>
        <time>2020-04-12T15:50:25Z</time>
      </trkpt>
      <trkpt lat="46.0168" lon="6.2149">
        <ele>680.27</ele>
        <time>2020-04-12T15:50:26Z</time>
      </trkpt>
      <trkpt lat="46.01658" lon="6.21463">
        <ele>679.79</ele>
        <time>2020-04-12T15:50:27Z</time>
      </trkpt>
      <trkpt lat="46.01518" lon="6.21327">
        <ele>677.87</ele>
        <time>2020-04-12T15:50:32Z</time>
      </trkpt>
      <trkpt lat="46.01413" lon="6.2121">
        <ele>675.46</ele>
        <time>2020-04-12T15:50:36Z</time>
      </trkpt>
      <trkpt lat="46.01393" lon="6.21174">
        <ele>674.98</ele>
        <time>2020-04-12T15:50:37Z</time>
      </trkpt>
      <trkpt lat="46.0125" lon="6.20978">
        <ele>668.25</ele>
        <time>2020-04-12T15:50:43Z</time>
      </trkpt>
      <trkpt lat="46.01085" lon="6.20779">
        <ele>662.49</ele>
        <time>2020-04-12T15:50:50Z</time>
      </trkpt>
      <trkpt lat="46.00929" lon="6.20594">
        <ele>658.64</ele>
        <time>2020-04-12T15:50:58Z</time>
      </trkpt>
      <trkpt lat="46.00881" lon="6.20528">
        <ele>658.64</ele>
        <time>2020-04-12T15:51:01Z</time>
      </trkpt>
      <trkpt lat="46.0087" lon="6.20499">
        <ele>658.16</ele>
        <time>2020-04-12T15:51:02Z</time>
      </trkpt>
      <trkpt lat="46.0086" lon="6.20471">
        <ele>657.68</ele>
        <time>2020-04-12T15:51:03Z</time>
      </trkpt>
      <trkpt lat="46.00851" lon="6.20441">
        <ele>657.68</ele>
        <time>2020-04-12T15:51:04Z</time>
      </trkpt>
      <trkpt lat="46.00843" lon="6.2041">
        <ele>656.72</ele>
        <time>2020-04-12T15:51:05Z</time>
      </trkpt>
      <trkpt lat="46.00783" lon="6.20194">
        <ele>653.35</ele>
        <time>2020-04-12T15:51:11Z</time>
      </trkpt>
      <trkpt lat="46.00705" lon="6.19833">
        <ele>639.89</ele>
        <time>2020-04-12T15:51:21Z</time>
      </trkpt>
      <trkpt lat="46.00687" lon="6.19768">
        <ele>637.49</ele>
        <time>2020-04-12T15:51:23Z</time>
      </trkpt>
      <trkpt lat="46.00677" lon="6.19736">
        <ele>636.05</ele>
        <time>2020-04-12T15:51:24Z</time>
      </trkpt>
      <trkpt lat="46.00665" lon="6.19706">
        <ele>634.61</ele>
        <time>2020-04-12T15:51:25Z</time>
      </trkpt>
      <trkpt lat="46.00609" lon="6.19563">
        <ele>628.36</ele>
        <time>2020-04-12T15:51:30Z</time>
      </trkpt>
      <trkpt lat="46.00594" lon="6.19542">
        <ele>627.4</ele>
        <time>2020-04-12T15:51:31Z</time>
      </trkpt>
      <trkpt lat="46.00578" lon="6.19523">
        <ele>625.96</ele>
        <time>2020-04-12T15:51:32Z</time>
      </trkpt>
      <trkpt lat="46.00561" lon="6.19505">
        <ele>624.99</ele>
        <time>2020-04-12T15:51:33Z</time>
      </trkpt>
      <trkpt lat="46.00543" lon="6.19489">
        <ele>623.55</ele>
        <time>2020-04-12T15:51:34Z</time>
      </trkpt>
      <trkpt lat="46.00526" lon="6.19473">
        <ele>622.59</ele>
        <time>2020-04-12T15:51:35Z</time>
      </trkpt>
      <trkpt lat="46.00513" lon="6.19452">
        <ele>621.15</ele>
        <time>2020-04-12T15:51:36Z</time>
      </trkpt>
      <trkpt lat="46.00501" lon="6.19432">
        <ele>620.19</ele>
        <time>2020-04-12T15:51:37Z</time>
      </trkpt>
      <trkpt lat="46.00491" lon="6.19413">
        <ele>618.75</ele>
        <time>2020-04-12T15:51:38Z</time>
      </trkpt>
      <trkpt lat="46.00484" lon="6.19393">
        <ele>617.78</ele>
        <time>2020-04-12T15:51:39Z</time>
      </trkpt>
      <trkpt lat="46.0048" lon="6.19374">
        <ele>616.34</ele>
        <time>2020-04-12T15:51:40Z</time>
      </trkpt>
      <trkpt lat="46.0048" lon="6.19356">
        <ele>615.38</ele>
        <time>2020-04-12T15:51:41Z</time>
      </trkpt>
      <trkpt lat="46.00489" lon="6.19338">
        <ele>614.42</ele>
        <time>2020-04-12T15:51:42Z</time>
      </trkpt>
      <trkpt lat="46.00497" lon="6.1932">
        <ele>613.46</ele>
        <time>2020-04-12T15:51:43Z</time>
      </trkpt>
      <trkpt lat="46.0051" lon="6.19312">
        <ele>612.98</ele>
        <time>2020-04-12T15:51:44Z</time>
      </trkpt>
      <trkpt lat="46.00525" lon="6.19308">
        <ele>612.02</ele>
        <time>2020-04-12T15:51:45Z</time>
      </trkpt>
      <trkpt lat="46.00539" lon="6.19314">
        <ele>611.06</ele>
        <time>2020-04-12T15:51:46Z</time>
      </trkpt>
      <trkpt lat="46.00553" lon="6.19324">
        <ele>610.09</ele>
        <time>2020-04-12T15:51:47Z</time>
      </trkpt>
      <trkpt lat="46.00567" lon="6.19339">
        <ele>609.61</ele>
        <time>2020-04-12T15:51:48Z</time>
      </trkpt>
      <trkpt lat="46.00582" lon="6.19359">
        <ele>608.17</ele>
        <time>2020-04-12T15:51:49Z</time>
      </trkpt>
      <trkpt lat="46.00597" lon="6.19387">
        <ele>607.21</ele>
        <time>2020-04-12T15:51:50Z</time>
      </trkpt>
      <trkpt lat="46.00654" lon="6.19507">
        <ele>601.92</ele>
        <time>2020-04-12T15:51:55Z</time>
      </trkpt>
      <trkpt lat="46.00662" lon="6.19524">
        <ele>601.44</ele>
        <time>2020-04-12T15:51:56Z</time>
      </trkpt>
      <trkpt lat="46.00669" lon="6.19536">
        <ele>600.48</ele>
        <time>2020-04-12T15:51:57Z</time>
      </trkpt>
      <trkpt lat="46.00678" lon="6.19539">
        <ele>600</ele>
        <time>2020-04-12T15:51:58Z</time>
      </trkpt>
      <trkpt lat="46.00686" lon="6.1954">
        <ele>599.52</ele>
        <time>2020-04-12T15:51:59Z</time>
      </trkpt>
      <trkpt lat="46.00692" lon="6.19531">
        <ele>599.04</ele>
        <time>2020-04-12T15:52:00Z</time>
      </trkpt>
      <trkpt lat="46.00693" lon="6.19518">
        <ele>599.04</ele>
        <time>2020-04-12T15:52:01Z</time>
      </trkpt>
      <trkpt lat="46.00694" lon="6.19503">
        <ele>599.04</ele>
        <time>2020-04-12T15:52:02Z</time>
      </trkpt>
      <trkpt lat="46.00687" lon="6.19487">
        <ele>598.56</ele>
        <time>2020-04-12T15:52:03Z</time>
      </trkpt>
      <trkpt lat="46.00679" lon="6.19466">
        <ele>597.6</ele>
        <time>2020-04-12T15:52:04Z</time>
      </trkpt>
      <trkpt lat="46.00669" lon="6.19442">
        <ele>597.12</ele>
        <time>2020-04-12T15:52:05Z</time>
      </trkpt>
      <trkpt lat="46.00614" lon="6.19284">
        <ele>592.31</ele>
        <time>2020-04-12T15:52:10Z</time>
      </trkpt>
      <trkpt lat="46.00521" lon="6.19045">
        <ele>579.81</ele>
        <time>2020-04-12T15:52:17Z</time>
      </trkpt>
      <trkpt lat="46.00449" lon="6.18927">
        <ele>571.64</ele>
        <time>2020-04-12T15:52:22Z</time>
      </trkpt>
      <trkpt lat="46.00409" lon="6.18869">
        <ele>566.83</ele>
        <time>2020-04-12T15:52:26Z</time>
      </trkpt>
      <trkpt lat="46.00404" lon="6.18856">
        <ele>565.39</ele>
        <time>2020-04-12T15:52:27Z</time>
      </trkpt>
      <trkpt lat="46.00401" lon="6.18845">
        <ele>564.43</ele>
        <time>2020-04-12T15:52:28Z</time>
      </trkpt>
      <trkpt lat="46.00404" lon="6.18833">
        <ele>563.47</ele>
        <time>2020-04-12T15:52:29Z</time>
      </trkpt>
      <trkpt lat="46.00411" lon="6.18826">
        <ele>562.51</ele>
        <time>2020-04-12T15:52:30Z</time>
      </trkpt>
      <trkpt lat="46.00419" lon="6.18821">
        <ele>562.03</ele>
        <time>2020-04-12T15:52:31Z</time>
      </trkpt>
      <trkpt lat="46.00429" lon="6.1882">
        <ele>561.55</ele>
        <time>2020-04-12T15:52:32Z</time>
      </trkpt>
      <trkpt lat="46.00439" lon="6.18831">
        <ele>561.07</ele>
        <time>2020-04-12T15:52:33Z</time>
      </trkpt>
      <trkpt lat="46.00444" lon="6.18845">
        <ele>561.07</ele>
        <time>2020-04-12T15:52:34Z</time>
      </trkpt>
      <trkpt lat="46.00449" lon="6.18858">
        <ele>560.59</ele>
        <time>2020-04-12T15:52:35Z</time>
      </trkpt>
      <trkpt lat="46.0045" lon="6.18886">
        <ele>560.11</ele>
        <time>2020-04-12T15:52:36Z</time>
      </trkpt>
      <trkpt lat="46.00439" lon="6.18897">
        <ele>559.14</ele>
        <time>2020-04-12T15:52:37Z</time>
      </trkpt>
      <trkpt lat="46.00433" lon="6.18906">
        <ele>558.18</ele>
        <time>2020-04-12T15:52:38Z</time>
      </trkpt>
      <trkpt lat="46.00422" lon="6.18921">
        <ele>556.74</ele>
        <time>2020-04-12T15:52:39Z</time>
      </trkpt>
      <trkpt lat="46.00411" lon="6.18938">
        <ele>555.78</ele>
        <time>2020-04-12T15:52:40Z</time>
      </trkpt>
      <trkpt lat="46.004" lon="6.18958">
        <ele>554.82</ele>
        <time>2020-04-12T15:52:41Z</time>
      </trkpt>
      <trkpt lat="46.00395" lon="6.18983">
        <ele>554.82</ele>
        <time>2020-04-12T15:52:42Z</time>
      </trkpt>
      <trkpt lat="46.00389" lon="6.1901">
        <ele>555.3</ele>
        <time>2020-04-12T15:52:43Z</time>
      </trkpt>
      <trkpt lat="46.00346" lon="6.19216">
        <ele>561.07</ele>
        <time>2020-04-12T15:52:49Z</time>
      </trkpt>
      <trkpt lat="46.00291" lon="6.19505">
        <ele>564.91</ele>
        <time>2020-04-12T15:52:57Z</time>
      </trkpt>
      <trkpt lat="46.00279" lon="6.19784">
        <ele>566.83</ele>
        <time>2020-04-12T15:53:05Z</time>
      </trkpt>
      <trkpt lat="46.00271" lon="6.19814">
        <ele>566.83</ele>
        <time>2020-04-12T15:53:06Z</time>
      </trkpt>
      <trkpt lat="46.00261" lon="6.19841">
        <ele>566.83</ele>
        <time>2020-04-12T15:53:07Z</time>
      </trkpt>
      <trkpt lat="46.00212" lon="6.19972">
        <ele>569.24</ele>
        <time>2020-04-12T15:53:13Z</time>
      </trkpt>
      <trkpt lat="46.00206" lon="6.19988">
        <ele>569.72</ele>
        <time>2020-04-12T15:53:14Z</time>
      </trkpt>
      <trkpt lat="46.00195" lon="6.20017">
        <ele>570.68</ele>
        <time>2020-04-12T15:53:17Z</time>
      </trkpt>
      <trkpt lat="46.00193" lon="6.20022">
        <ele>571.16</ele>
        <time>2020-04-12T15:53:18Z</time>
      </trkpt>
      <trkpt lat="46.00186" lon="6.20012">
        <ele>571.64</ele>
        <time>2020-04-12T15:53:21Z</time>
      </trkpt>
      <trkpt lat="46.00188" lon="6.19997">
        <ele>571.64</ele>
        <time>2020-04-12T15:53:26Z</time>
      </trkpt>
      <trkpt lat="46.00183" lon="6.19995">
        <ele>572.12</ele>
        <time>2020-04-12T15:53:37Z</time>
      </trkpt>
      <trkpt lat="46.00183" lon="6.19995">
        <ele>572.12</ele>
        <time>2020-04-12T15:53:39Z</time>
      </trkpt>
      <trkpt lat="46.00181" lon="6.19997">
        <ele>572.12</ele>
        <time>2020-04-12T15:53:52Z</time>
      </trkpt>
      <trkpt lat="46.00181" lon="6.19997">
        <ele>572.12</ele>
        <time>2020-04-12T15:54:22Z</time>
      </trkpt>
    </trkseg>
  </trk>
</gpx>